Observation data for Dozier on 01/18/2019      Previous  Date  Next       Current Mesonet Observations  Soil Data  Daily Summary Page  Observations in Plain Language
KDO1 180600Z 15005KT 04/03 A3001 RMK A01 T00420032  RH  093%=      5-min Rain = 0
KDO1 180601Z 15005KT 04/03 A3001 RMK A01 T00410032  RH  093%=      5-min Rain = 0
KDO1 180602Z 14006KT 04/03 A3001 RMK A01 T00410032  RH  094%=      5-min Rain = 0
KDO1 180603Z 15006KT 04/03 A30 RMK A01 T00410032  RH  094%=      5-min Rain = 0
KDO1 180604Z 15006KT 04/03 A30 RMK A01 T00400032  RH  094%=      5-min Rain = 0
KDO1 180605Z 15006KT 04/03 A30 RMK A01 T00400032  RH  095%=      5-min Rain = 0
KDO1 180606Z 14007KT 04/03 A30 RMK A01 T00400032  RH  095%=      5-min Rain = 0
KDO1 180607Z 15006KT 04/03 A30 RMK A01 T00390031  RH  095%=      5-min Rain = 0
KDO1 180608Z 15007KT 04/03 A30 RMK A01 T00380031  RH  095%=      5-min Rain = 0
KDO1 180609Z 15007KT 04/03 A30 RMK A01 T00380032  RH  095%=      5-min Rain = 0
KDO1 180610Z 15007KT 04/03 A30 RMK A01 T00390033  RH  096%=      5-min Rain = 0
KDO1 180611Z 15006KT 04/03 A30 RMK A01 T00400034  RH  096%=      5-min Rain = 0
KDO1 180612Z 15006KT 04/03 A30 RMK A01 T00410034  RH  096%=      5-min Rain = 0
KDO1 180613Z 14006KT 04/03 A30 RMK A01 T00410034  RH  095%=      5-min Rain = 0
KDO1 180614Z 14007KT 04/03 A30 RMK A01 T00410034  RH  095%=      5-min Rain = 0
KDO1 180615Z 14006KT 04/03 A30 RMK A01 T00410034  RH  095%=      5-min Rain = 0
KDO1 180616Z 14006KT 04/03 A30 RMK A01 T00410034  RH  095%=      5-min Rain = 0
KDO1 180617Z 15006KT 04/03 A30 RMK A01 T00410034  RH  095%=      5-min Rain = 0
KDO1 180618Z 15006KT 04/03 A30 RMK A01 T00410034  RH  096%=      5-min Rain = 0
KDO1 180619Z 15006KT 04/03 A30 RMK A01 T00410034  RH  096%=      5-min Rain = 0
KDO1 180620Z 15006KT 04/04 A30 RMK A01 T00410035  RH  096%=      5-min Rain = 0
KDO1 180621Z 15006KT 04/04 A30 RMK A01 T00410035  RH  096%=      5-min Rain = 0
KDO1 180622Z 15006KT 04/04 A30 RMK A01 T00410035  RH  096%=      5-min Rain = 0
KDO1 180623Z 15005KT 04/04 A30 RMK A01 T00410035  RH  096%=      5-min Rain = 0
KDO1 180624Z 15005KT 04/04 A30 RMK A01 T00410035  RH  096%=      5-min Rain = 0
KDO1 180625Z 16005KT 04/03 A30 RMK A01 T00400034  RH  096%=      5-min Rain = 0
KDO1 180626Z 16005KT 04/04 A30 RMK A01 T00400035  RH  096%=      5-min Rain = 0
KDO1 180627Z 16005KT 04/03 A30 RMK A01 T00400034  RH  096%=      5-min Rain = 0
KDO1 180628Z 16004KT 04/03 A30 RMK A01 T00400034  RH  096%=      5-min Rain = 0
KDO1 180629Z 16004KT 04/03 A30 RMK A01 T00390034  RH  096%=      5-min Rain = 0
KDO1 180630Z 16004KT 04/03 A30 RMK A01 T00380032  RH  096%=      5-min Rain = 0
KDO1 180631Z 16004KT 04/03 A2999 RMK A01 T00380032  RH  096%=      5-min Rain = 0
KDO1 180632Z 16004KT 04/03 A2999 RMK A01 T00370032  RH  096%=      5-min Rain = 0
KDO1 180633Z 16004KT 04/03 A2999 RMK A01 T00370032  RH  097%=      5-min Rain = 0
KDO1 180634Z 16004KT 04/03 A2999 RMK A01 T00370033  RH  097%=      5-min Rain = 0
KDO1 180635Z 16004KT 04/03 A2999 RMK A01 T00370032  RH  097%=      5-min Rain = 0
KDO1 180636Z 16004KT 04/03 A2999 RMK A01 T00370032  RH  097%=      5-min Rain = 0
KDO1 180637Z 15003KT 04/03 A2999 RMK A01 T00360032  RH  097%=      5-min Rain = 0
KDO1 180638Z 15003KT 04/03 A2999 RMK A01 T00360032  RH  097%=      5-min Rain = 0
KDO1 180639Z 14003KT 04/03 A2999 RMK A01 T00360032  RH  097%=      5-min Rain = 0
KDO1 180640Z 14003KT 04/03 A2999 RMK A01 T00360032  RH  097%=      5-min Rain = 0
KDO1 180641Z 14002KT 04/03 A2999 RMK A01 T00350032  RH  097%=      5-min Rain = 0
KDO1 180642Z 13002KT 04/03 A2999 RMK A01 T00350031  RH  097%=      5-min Rain = 0
KDO1 180643Z 13002KT 04/03 A2999 RMK A01 T00350031  RH  097%=      5-min Rain = 0
KDO1 180644Z 12001KT 03/03 A2999 RMK A01 T00340030  RH  097%=      5-min Rain = 0
KDO1 180645Z 11001KT 03/03 A2999 RMK A01 T00340029  RH  097%=      5-min Rain = 0
KDO1 180646Z 11002KT 03/03 A2999 RMK A01 T00330029  RH  097%=      5-min Rain = 0
KDO1 180647Z 12002KT 03/03 A2998 RMK A01 T00330029  RH  098%=      5-min Rain = 0
KDO1 180648Z 12002KT 03/03 A2998 RMK A01 T00320029  RH  098%=      5-min Rain = 0
KDO1 180649Z 13001KT 03/03 A2998 RMK A01 T00320029  RH  098%=      5-min Rain = 0
KDO1 180650Z 14001KT 03/03 A2998 RMK A01 T00310029  RH  098%=      5-min Rain = 0
KDO1 180651Z 14002KT 03/03 A2998 RMK A01 T00310029  RH  099%=      5-min Rain = 0
KDO1 180652Z 14002KT 03/03 A2998 RMK A01 T00320030  RH  099%=      5-min Rain = 0
KDO1 180653Z 14003KT 03/03 A2998 RMK A01 T00320031  RH  099%=      5-min Rain = 0
KDO1 180654Z 15003KT 03/03 A2998 RMK A01 T00320031  RH  100%=      5-min Rain = 0
KDO1 180655Z 13003KT 03/03 A2998 RMK A01 T00320031  RH  100%=      5-min Rain = 0
KDO1 180656Z 14003KT 03/03 A2997 RMK A01 T00320031  RH  100%=      5-min Rain = 0
KDO1 180657Z 14003KT 03/03 A2997 RMK A01 T00320032  RH  100%=      5-min Rain = 0
KDO1 180658Z 13003KT 03/03 A2997 RMK A01 T00320032  RH  100%=      5-min Rain = 0
KDO1 180659Z 14003KT 03/03 A2997 RMK A01 T00320032  RH  100%=      5-min Rain = 0
KDO1 180700Z 14004KT 03/03 A2997 RMK A01 T00320031  RH  100%=      5-min Rain = 0
KDO1 180701Z 14004KT 03/03 A2997 RMK A01 T00310031  RH  100%=      5-min Rain = 0
KDO1 180702Z 15004KT 03/03 A2997 RMK A01 T00310031  RH  100%=      5-min Rain = 0
KDO1 180703Z 16004KT 03/03 A2997 RMK A01 T00310031  RH  100%=      5-min Rain = 0
KDO1 180704Z 16004KT 03/03 A2997 RMK A01 T00300030  RH  100%=      5-min Rain = 0
KDO1 180705Z 16004KT 03/03 A2997 RMK A01 T00310031  RH  100%=      5-min Rain = 0
KDO1 180706Z 16004KT 03/03 A2997 RMK A01 T00310030  RH  100%=      5-min Rain = 0
KDO1 180707Z 17004KT 03/03 A2997 RMK A01 T00300030  RH  100%=      5-min Rain = 0
KDO1 180708Z 17004KT 03/03 A2997 RMK A01 T00310030  RH  100%=      5-min Rain = 0
KDO1 180709Z 17004KT 03/03 A2997 RMK A01 T00300030  RH  100%=      5-min Rain = 0
KDO1 180710Z 17004KT 03/03 A2997 RMK A01 T00300030  RH  100%=      5-min Rain = 0
KDO1 180711Z 17004KT 03/03 A2997 RMK A01 T00290029  RH  100%=      5-min Rain = 0
KDO1 180712Z 17003KT 03/03 A2997 RMK A01 T00280028  RH  100%=      5-min Rain = 0
KDO1 180713Z 18003KT 03/03 A2997 RMK A01 T00270027  RH  100%=      5-min Rain = 0
KDO1 180714Z 18003KT 03/03 A2997 RMK A01 T00260026  RH  100%=      5-min Rain = 0
KDO1 180715Z 18003KT 03/03 A2997 RMK A01 T00250025  RH  100%=      5-min Rain = 0
KDO1 180716Z 19003KT 03/03 A2997 RMK A01 T00250025  RH  100%=      5-min Rain = 0
KDO1 180717Z 19003KT 03/02 A2997 RMK A01 T00250024  RH  100%=      5-min Rain = 0
KDO1 180718Z 19003KT 02/02 A2996 RMK A01 T00240024  RH  100%=      5-min Rain = 0
KDO1 180719Z 18002KT 02/02 A2996 RMK A01 T00240024  RH  100%=      5-min Rain = 0
KDO1 180720Z 19002KT 02/02 A2996 RMK A01 T00240024  RH  100%=      5-min Rain = 0
KDO1 180721Z 19002KT 02/02 A2996 RMK A01 T00240024  RH  100%=      5-min Rain = 0
KDO1 180722Z 18002KT 02/02 A2996 RMK A01 T00240024  RH  100%=      5-min Rain = 0
KDO1 180723Z 18003KT 02/02 A2996 RMK A01 T00240024  RH  100%=      5-min Rain = 0
KDO1 180724Z 18003KT 03/03 A2996 RMK A01 T00250025  RH  100%=      5-min Rain = 0
KDO1 180725Z 17003KT 03/03 A2996 RMK A01 T00260025  RH  100%=      5-min Rain = 0
KDO1 180726Z 17003KT 03/03 A2996 RMK A01 T00260026  RH  100%=      5-min Rain = 0
KDO1 180727Z 16003KT 03/03 A2996 RMK A01 T00260026  RH  100%=      5-min Rain = 0
KDO1 180728Z 17003KT 03/03 A2996 RMK A01 T00270027  RH  100%=      5-min Rain = 0
KDO1 180729Z 18003KT 03/03 A2996 RMK A01 T00280028  RH  100%=      5-min Rain = 0
KDO1 180730Z 17003KT 03/03 A2996 RMK A01 T00290028  RH  100%=      5-min Rain = 0
KDO1 180731Z 17003KT 03/03 A2996 RMK A01 T00290029  RH  100%=      5-min Rain = 0
KDO1 180732Z 17003KT 03/03 A2996 RMK A01 T00290029  RH  100%=      5-min Rain = 0
KDO1 180733Z 17003KT 03/03 A2996 RMK A01 T00290029  RH  100%=      5-min Rain = 0
KDO1 180734Z 17003KT 03/03 A2996 RMK A01 T00290029  RH  100%=      5-min Rain = 0
KDO1 180735Z 18003KT 03/03 A2996 RMK A01 T00290029  RH  100%=      5-min Rain = 0
KDO1 180736Z 17002KT 03/03 A2995 RMK A01 T00290029  RH  100%=      5-min Rain = 0
KDO1 180737Z 17003KT 03/03 A2995 RMK A01 T00290028  RH  100%=      5-min Rain = 0
KDO1 180738Z 17003KT 03/03 A2995 RMK A01 T00290029  RH  100%=      5-min Rain = 0
KDO1 180739Z 17003KT 03/03 A2995 RMK A01 T00290029  RH  100%=      5-min Rain = 0
KDO1 180740Z 16003KT 03/03 A2995 RMK A01 T00290028  RH  100%=      5-min Rain = 0
KDO1 180741Z 16004KT 03/03 A2995 RMK A01 T00290029  RH  100%=      5-min Rain = 0
KDO1 180742Z 16004KT 03/03 A2995 RMK A01 T00290029  RH  100%=      5-min Rain = 0
KDO1 180743Z 16004KT 03/03 A2995 RMK A01 T00290029  RH  100%=      5-min Rain = 0
KDO1 180744Z 16004KT 03/03 A2995 RMK A01 T00290029  RH  100%=      5-min Rain = 0
KDO1 180745Z 16004KT 03/03 A2995 RMK A01 T00280028  RH  100%=      5-min Rain = 0
KDO1 180746Z 16003KT 03/03 A2995 RMK A01 T00280028  RH  100%=      5-min Rain = 0
KDO1 180747Z 16003KT 03/03 A2995 RMK A01 T00280028  RH  100%=      5-min Rain = 0
KDO1 180748Z 17003KT 03/03 A2995 RMK A01 T00270027  RH  100%=      5-min Rain = 0
KDO1 180749Z 17003KT 03/03 A2995 RMK A01 T00270027  RH  100%=      5-min Rain = 0
KDO1 180750Z 17003KT 03/03 A2995 RMK A01 T00270027  RH  100%=      5-min Rain = 0
KDO1 180751Z 18003KT 03/03 A2995 RMK A01 T00270027  RH  100%=      5-min Rain = 0
KDO1 180752Z 19003KT 03/03 A2995 RMK A01 T00270027  RH  100%=      5-min Rain = 0
KDO1 180753Z 19003KT 03/03 A2995 RMK A01 T00260026  RH  100%=      5-min Rain = 0
KDO1 180754Z 19003KT 03/03 A2995 RMK A01 T00250025  RH  100%=      5-min Rain = 0
KDO1 180755Z 18003KT 03/02 A2995 RMK A01 T00250024  RH  100%=      5-min Rain = 0
KDO1 180756Z 18003KT 03/02 A2995 RMK A01 T00250024  RH  100%=      5-min Rain = 0
KDO1 180757Z 17004KT 03/03 A2995 RMK A01 T00250025  RH  100%=      5-min Rain = 0
KDO1 180758Z 17004KT 03/03 A2995 RMK A01 T00260026  RH  100%=      5-min Rain = 0
KDO1 180759Z 17004KT 03/03 A2995 RMK A01 T00260026  RH  100%=      5-min Rain = 0
KDO1 180800Z 17004KT 03/03 A2995 RMK A01 T00260026  RH  100%=      5-min Rain = 0
KDO1 180801Z 17004KT 03/03 A2995 RMK A01 T00260026  RH  100%=      5-min Rain = 0
KDO1 180802Z 18005KT 03/03 A2994 RMK A01 T00260026  RH  100%=      5-min Rain = 0
KDO1 180803Z 17004KT 03/03 A2994 RMK A01 T00260026  RH  100%=      5-min Rain = 0
KDO1 180804Z 16004KT 03/03 A2994 RMK A01 T00270027  RH  100%=      5-min Rain = 0
KDO1 180805Z 17004KT 03/03 A2994 RMK A01 T00280028  RH  100%=      5-min Rain = 0
KDO1 180806Z 17005KT 03/03 A2994 RMK A01 T00280028  RH  100%=      5-min Rain = 0
KDO1 180807Z 16005KT 03/03 A2994 RMK A01 T00280028  RH  100%=      5-min Rain = 0
KDO1 180808Z 17005KT 03/03 A2994 RMK A01 T00280028  RH  100%=      5-min Rain = 0
KDO1 180809Z 16005KT 03/03 A2994 RMK A01 T00280028  RH  100%=      5-min Rain = 0
KDO1 180810Z 16004KT 03/03 A2994 RMK A01 T00280028  RH  100%=      5-min Rain = 0
KDO1 180811Z 16005KT 03/03 A2994 RMK A01 T00280028  RH  100%=      5-min Rain = 0
KDO1 180812Z 16005KT 03/03 A2993 RMK A01 T00280028  RH  100%=      5-min Rain = 0
KDO1 180813Z 16005KT 03/03 A2993 RMK A01 T00290029  RH  100%=      5-min Rain = 0
KDO1 180814Z 16005KT 03/03 A2994 RMK A01 T00290028  RH  100%=      5-min Rain = 0
KDO1 180815Z 16005KT 03/03 A2993 RMK A01 T00290029  RH  100%=      5-min Rain = 0
KDO1 180816Z 16005KT 03/03 A2993 RMK A01 T00290029  RH  100%=      5-min Rain = 0
KDO1 180817Z 16005KT 03/03 A2993 RMK A01 T00290029  RH  100%=      5-min Rain = 0
KDO1 180818Z 17005KT 03/03 A2993 RMK A01 T00290029  RH  100%=      5-min Rain = 0
KDO1 180819Z 17005KT 03/03 A2993 RMK A01 T00290029  RH  100%=      5-min Rain = 0
KDO1 180820Z 17004KT 03/03 A2993 RMK A01 T00290028  RH  100%=      5-min Rain = 0
KDO1 180821Z 17005KT 03/03 A2993 RMK A01 T00290029  RH  100%=      5-min Rain = 0
KDO1 180822Z 17005KT 03/03 A2993 RMK A01 T00290029  RH  100%=      5-min Rain = 0
KDO1 180823Z 17004KT 03/03 A2993 RMK A01 T00290028  RH  100%=      5-min Rain = 0
KDO1 180824Z 17004KT 03/03 A2993 RMK A01 T00290029  RH  100%=      5-min Rain = 0
KDO1 180825Z 17005KT 03/03 A2993 RMK A01 T00290029  RH  100%=      5-min Rain = 0
KDO1 180826Z 17005KT 03/03 A2993 RMK A01 T00290029  RH  100%=      5-min Rain = 0
KDO1 180827Z 17005KT 03/03 A2993 RMK A01 T00290029  RH  100%=      5-min Rain = 0
KDO1 180828Z 17005KT 03/03 A2993 RMK A01 T00290029  RH  100%=      5-min Rain = 0
KDO1 180829Z 17005KT 03/03 A2992 RMK A01 T00290029  RH  100%=      5-min Rain = 0
KDO1 180830Z 17004KT 03/03 A2992 RMK A01 T00280028  RH  100%=      5-min Rain = 0
KDO1 180831Z 17004KT 03/03 A2992 RMK A01 T00270027  RH  100%=      5-min Rain = 0
KDO1 180832Z 18004KT 03/03 A2992 RMK A01 T00260026  RH  100%=      5-min Rain = 0
KDO1 180833Z 18004KT 03/03 A2992 RMK A01 T00250025  RH  100%=      5-min Rain = 0
KDO1 180834Z 18004KT 02/02 A2992 RMK A01 T00240024  RH  100%=      5-min Rain = 0
KDO1 180835Z 17004KT 02/02 A2992 RMK A01 T00240024  RH  100%=      5-min Rain = 0
KDO1 180836Z 17004KT 02/02 A2992 RMK A01 T00240024  RH  100%=      5-min Rain = 0
KDO1 180837Z 17005KT 03/02 A2992 RMK A01 T00250024  RH  100%=      5-min Rain = 0
KDO1 180838Z 17005KT 03/03 A2992 RMK A01 T00250025  RH  100%=      5-min Rain = 0
KDO1 180839Z 17005KT 03/03 A2992 RMK A01 T00250025  RH  100%=      5-min Rain = 0
KDO1 180840Z 18005KT 03/03 A2992 RMK A01 T00250025  RH  100%=      5-min Rain = 0
KDO1 180841Z 18005KT 03/03 A2992 RMK A01 T00250025  RH  100%=      5-min Rain = 0
KDO1 180842Z 17004KT 03/03 A2991 RMK A01 T00250025  RH  100%=      5-min Rain = 0
KDO1 180843Z 17005KT 03/03 A2991 RMK A01 T00250025  RH  100%=      5-min Rain = 0
KDO1 180844Z 18004KT 03/03 A2991 RMK A01 T00250025  RH  100%=      5-min Rain = 0
KDO1 180845Z 18005KT 03/03 A2991 RMK A01 T00250025  RH  100%=      5-min Rain = 0
KDO1 180846Z 18005KT 03/03 A2991 RMK A01 T00250025  RH  100%=      5-min Rain = 0
KDO1 180847Z 17005KT 03/02 A2991 RMK A01 T00250024  RH  100%=      5-min Rain = 0
KDO1 180848Z 18005KT 02/02 A2991 RMK A01 T00240024  RH  100%=      5-min Rain = 0
KDO1 180849Z 18005KT 02/02 A2991 RMK A01 T00240024  RH  100%=      5-min Rain = 0
KDO1 180850Z 18004KT 02/02 A2991 RMK A01 T00240024  RH  100%=      5-min Rain = 0
KDO1 180851Z 18003KT 02/02 A2991 RMK A01 T00230023  RH  100%=      5-min Rain = 0
KDO1 180852Z 18003KT 02/02 A2991 RMK A01 T00210021  RH  100%=      5-min Rain = 0
KDO1 180853Z 18003KT 02/02 A2991 RMK A01 T00190019  RH  100%=      5-min Rain = 0
KDO1 180854Z 18003KT 02/02 A2991 RMK A01 T00180018  RH  100%=      5-min Rain = 0
KDO1 180855Z 18003KT 02/02 A2991 RMK A01 T00170016  RH  100%=      5-min Rain = 0
KDO1 180856Z 18003KT 02/02 A2991 RMK A01 T00160015  RH  100%=      5-min Rain = 0
KDO1 180857Z 18004KT 02/02 A2991 RMK A01 T00150015  RH  100%=      5-min Rain = 0
KDO1 180858Z 17004KT 02/02 A2991 RMK A01 T00150015  RH  100%=      5-min Rain = 0
KDO1 180859Z 17004KT 02/02 A2991 RMK A01 T00160016  RH  100%=      5-min Rain = 0
KDO1 180900Z 17004KT 02/02 A2991 RMK A01 T00170017  RH  100%=      5-min Rain = 0
KDO1 180901Z 18004KT 02/02 A2991 RMK A01 T00180018  RH  100%=      5-min Rain = 0
KDO1 180902Z 18003KT 02/02 A2991 RMK A01 T00190019  RH  100%=      5-min Rain = 0
KDO1 180903Z 18003KT 02/02 A2991 RMK A01 T00190018  RH  100%=      5-min Rain = 0
KDO1 180904Z 19003KT 02/02 A2991 RMK A01 T00170017  RH  100%=      5-min Rain = 0
KDO1 180905Z 19003KT 02/02 A2991 RMK A01 T00160016  RH  100%=      5-min Rain = 0
KDO1 180906Z 19003KT 02/02 A299 RMK A01 T00150015  RH  100%=      5-min Rain = 0
KDO1 180907Z 19003KT 01/01 A299 RMK A01 T00140014  RH  100%=      5-min Rain = 0
KDO1 180908Z 18003KT 01/01 A299 RMK A01 T00130013  RH  100%=      5-min Rain = 0
KDO1 180909Z 18003KT 01/01 A299 RMK A01 T00130013  RH  100%=      5-min Rain = 0
KDO1 180910Z 18003KT 01/01 A299 RMK A01 T00130013  RH  100%=      5-min Rain = 0
KDO1 180911Z 18003KT 01/01 A299 RMK A01 T00130013  RH  100%=      5-min Rain = 0
KDO1 180912Z 18003KT 01/01 A299 RMK A01 T00130013  RH  100%=      5-min Rain = 0
KDO1 180913Z 18003KT 02/02 A299 RMK A01 T00150015  RH  100%=      5-min Rain = 0
KDO1 180914Z 19003KT 02/02 A299 RMK A01 T00160016  RH  100%=      5-min Rain = 0
KDO1 180915Z 19002KT 02/02 A299 RMK A01 T00170016  RH  100%=      5-min Rain = 0
KDO1 180916Z 20002KT 02/02 A299 RMK A01 T00170017  RH  100%=      5-min Rain = 0
KDO1 180917Z 20002KT 02/02 A299 RMK A01 T00170017  RH  100%=      5-min Rain = 0
KDO1 180918Z 20002KT 02/02 A299 RMK A01 T00170017  RH  100%=      5-min Rain = 0
KDO1 180919Z 20002KT 02/02 A299 RMK A01 T00160016  RH  100%=      5-min Rain = 0
KDO1 180920Z 20002KT 02/02 A299 RMK A01 T00160016  RH  100%=      5-min Rain = 0
KDO1 180921Z 19003KT 02/02 A299 RMK A01 T00150015  RH  100%=      5-min Rain = 0
KDO1 180922Z 19003KT 02/02 A299 RMK A01 T00150015  RH  100%=      5-min Rain = 0
KDO1 180923Z 18004KT 02/02 A2989 RMK A01 T00150015  RH  100%=      5-min Rain = 0
KDO1 180924Z 18004KT 02/02 A2989 RMK A01 T00160016  RH  100%=      5-min Rain = 0
KDO1 180925Z 19004KT 02/02 A299 RMK A01 T00160016  RH  100%=      5-min Rain = 0
KDO1 180926Z 19004KT 02/02 A299 RMK A01 T00170017  RH  100%=      5-min Rain = 0
KDO1 180927Z 20004KT 02/02 A299 RMK A01 T00170017  RH  100%=      5-min Rain = 0
KDO1 180928Z 20004KT 02/02 A299 RMK A01 T00170017  RH  100%=      5-min Rain = 0
KDO1 180929Z 19004KT 02/02 A299 RMK A01 T00160016  RH  100%=      5-min Rain = 0
KDO1 180930Z 19004KT 02/02 A2989 RMK A01 T00160016  RH  100%=      5-min Rain = 0
KDO1 180931Z 19004KT 02/02 A2989 RMK A01 T00160016  RH  100%=      5-min Rain = 0
KDO1 180932Z 19004KT 02/02 A2989 RMK A01 T00160016  RH  100%=      5-min Rain = 0
KDO1 180933Z 20004KT 02/02 A2989 RMK A01 T00160015  RH  100%=      5-min Rain = 0
KDO1 180934Z 20004KT 02/02 A2989 RMK A01 T00150015  RH  100%=      5-min Rain = 0
KDO1 180935Z 20004KT 01/01 A2989 RMK A01 T00140014  RH  100%=      5-min Rain = 0
KDO1 180936Z 20004KT 01/01 A2989 RMK A01 T00130013  RH  100%=      5-min Rain = 0
KDO1 180937Z 20004KT 01/01 A2989 RMK A01 T00120012  RH  100%=      5-min Rain = 0
KDO1 180938Z 20004KT 01/01 A2989 RMK A01 T00110011  RH  100%=      5-min Rain = 0
KDO1 180939Z 21003KT 01/01 A2989 RMK A01 T00110011  RH  100%=      5-min Rain = 0
KDO1 180940Z 21003KT 01/01 A2989 RMK A01 T00110011  RH  100%=      5-min Rain = 0
KDO1 180941Z 22003KT 01/01 A2989 RMK A01 T00110011  RH  100%=      5-min Rain = 0
KDO1 180942Z 23003KT 01/01 A2989 RMK A01 T00110011  RH  100%=      5-min Rain = 0
KDO1 180943Z 23003KT 01/01 A2989 RMK A01 T00120011  RH  100%=      5-min Rain = 0
KDO1 180944Z 23003KT 01/01 A2989 RMK A01 T00110010  RH  100%=      5-min Rain = 0
KDO1 180945Z 23004KT 01/01 A2989 RMK A01 T00100010  RH  100%=      5-min Rain = 0
KDO1 180946Z 23004KT 01/01 A2989 RMK A01 T00100010  RH  100%=      5-min Rain = 0
KDO1 180947Z 22004KT 01/01 A2989 RMK A01 T00110011  RH  100%=      5-min Rain = 0
KDO1 180948Z 21005KT 01/01 A2989 RMK A01 T00120012  RH  100%=      5-min Rain = 0
KDO1 180949Z 21005KT 01/01 A2989 RMK A01 T00130013  RH  100%=      5-min Rain = 0
KDO1 180950Z 22005KT 01/01 A2989 RMK A01 T00140014  RH  100%=      5-min Rain = 0
KDO1 180951Z 23005KT 01/01 A2989 RMK A01 T00140014  RH  100%=      5-min Rain = 0
KDO1 180952Z 23005KT 01/01 A2989 RMK A01 T00140014  RH  100%=      5-min Rain = 0
KDO1 180953Z 23005KT 01/01 A2989 RMK A01 T00130013  RH  100%=      5-min Rain = 0
KDO1 180954Z 23005KT 01/01 A2989 RMK A01 T00130013  RH  100%=      5-min Rain = 0
KDO1 180955Z 23005KT 01/01 A2989 RMK A01 T00130013  RH  100%=      5-min Rain = 0
KDO1 180956Z 24005KT 01/01 A2989 RMK A01 T00140014  RH  100%=      5-min Rain = 0
KDO1 180957Z 24004KT 02/02 A2989 RMK A01 T00160016  RH  100%=      5-min Rain = 0
KDO1 180958Z 24005KT 02/02 A2989 RMK A01 T00170017  RH  100%=      5-min Rain = 0
KDO1 180959Z 23005KT 02/02 A2989 RMK A01 T00180018  RH  100%=      5-min Rain = 0
KDO1 181000Z 24005KT 02/02 A2989 RMK A01 T00180018  RH  100%=      5-min Rain = 0
KDO1 181001Z 23005KT 02/02 A2988 RMK A01 T00190018  RH  100%=      5-min Rain = 0
KDO1 181002Z 22005KT 02/02 A2988 RMK A01 T00190019  RH  100%=      5-min Rain = 0
KDO1 181003Z 23005KT 02/02 A2989 RMK A01 T00190019  RH  100%=      5-min Rain = 0
KDO1 181004Z 23005KT 02/02 A2988 RMK A01 T00190019  RH  100%=      5-min Rain = 0
KDO1 181005Z 23005KT 02/02 A2989 RMK A01 T00190019  RH  100%=      5-min Rain = 0
KDO1 181006Z 23005KT 02/02 A2989 RMK A01 T00190019  RH  100%=      5-min Rain = 0
KDO1 181007Z 22005KT 02/02 A2988 RMK A01 T00190019  RH  100%=      5-min Rain = 0
KDO1 181008Z 22006KT 02/02 A2988 RMK A01 T00190019  RH  100%=      5-min Rain = 0
KDO1 181009Z 21006KT 02/02 A2988 RMK A01 T00190018  RH  100%=      5-min Rain = 0
KDO1 181010Z 21006KT 02/02 A2988 RMK A01 T00180018  RH  100%=      5-min Rain = 0
KDO1 181011Z 22006KT 02/02 A2988 RMK A01 T00170017  RH  100%=      5-min Rain = 0
KDO1 181012Z 23006KT 02/02 A2988 RMK A01 T00170017  RH  100%=      5-min Rain = 0
KDO1 181013Z 23005KT 02/02 A2988 RMK A01 T00170017  RH  100%=      5-min Rain = 0
KDO1 181014Z 23005KT 02/02 A2988 RMK A01 T00180018  RH  100%=      5-min Rain = 0
KDO1 181015Z 22005KT 02/02 A2988 RMK A01 T00190019  RH  100%=      5-min Rain = 0
KDO1 181016Z 21004KT 02/02 A2988 RMK A01 T00200020  RH  100%=      5-min Rain = 0
KDO1 181017Z 22004KT 02/02 A2988 RMK A01 T00210021  RH  100%=      5-min Rain = 0
KDO1 181018Z 22005KT 02/02 A2987 RMK A01 T00210021  RH  100%=      5-min Rain = 0
KDO1 181019Z 20005KT 02/02 A2987 RMK A01 T00210021  RH  100%=      5-min Rain = 0
KDO1 181020Z 19005KT 02/02 A2987 RMK A01 T00200020  RH  100%=      5-min Rain = 0
KDO1 181021Z 19005KT 02/02 A2987 RMK A01 T00190019  RH  100%=      5-min Rain = 0
KDO1 181022Z 20004KT 02/02 A2987 RMK A01 T00180018  RH  100%=      5-min Rain = 0
KDO1 181023Z 19004KT 02/02 A2987 RMK A01 T00170017  RH  100%=      5-min Rain = 0
KDO1 181024Z 19003KT 02/02 A2987 RMK A01 T00160016  RH  100%=      5-min Rain = 0
KDO1 181025Z 21002KT 02/02 A2987 RMK A01 T00150015  RH  100%=      5-min Rain = 0
KDO1 181026Z 23002KT 02/01 A2987 RMK A01 T00150014  RH  100%=      5-min Rain = 0
KDO1 181027Z 23002KT 01/01 A2987 RMK A01 T00140014  RH  100%=      5-min Rain = 0
KDO1 181028Z 22002KT 01/01 A2987 RMK A01 T00130013  RH  100%=      5-min Rain = 0
KDO1 181029Z 23002KT 01/01 A2987 RMK A01 T00130013  RH  100%=      5-min Rain = 0
KDO1 181030Z 23002KT 01/01 A2987 RMK A01 T00130013  RH  100%=      5-min Rain = 0
KDO1 181031Z 22003KT 01/01 A2987 RMK A01 T00130013  RH  100%=      5-min Rain = 0
KDO1 181032Z 21003KT 01/01 A2986 RMK A01 T00140013  RH  100%=      5-min Rain = 0
KDO1 181033Z 21003KT 01/01 A2986 RMK A01 T00140014  RH  100%=      5-min Rain = 0
KDO1 181034Z 21003KT 01/01 A2986 RMK A01 T00140014  RH  100%=      5-min Rain = 0
KDO1 181035Z 20003KT 01/01 A2986 RMK A01 T00140014  RH  100%=      5-min Rain = 0
KDO1 181036Z 20003KT 01/01 A2986 RMK A01 T00140014  RH  100%=      5-min Rain = 0
KDO1 181037Z 21004KT 02/01 A2986 RMK A01 T00150014  RH  100%=      5-min Rain = 0
KDO1 181038Z 21003KT 02/02 A2986 RMK A01 T00150015  RH  100%=      5-min Rain = 0
KDO1 181039Z 21003KT 01/01 A2986 RMK A01 T00140014  RH  100%=      5-min Rain = 0
KDO1 181040Z 21003KT 01/01 A2986 RMK A01 T00140013  RH  100%=      5-min Rain = 0
KDO1 181041Z 20004KT 01/01 A2986 RMK A01 T00130013  RH  100%=      5-min Rain = 0
KDO1 181042Z 20004KT 01/01 A2986 RMK A01 T00130013  RH  100%=      5-min Rain = 0
KDO1 181043Z 21004KT 01/01 A2986 RMK A01 T00130013  RH  100%=      5-min Rain = 0
KDO1 181044Z 21004KT 01/01 A2985 RMK A01 T00130013  RH  100%=      5-min Rain = 0
KDO1 181045Z 21004KT 01/01 A2985 RMK A01 T00130013  RH  100%=      5-min Rain = 0
KDO1 181046Z 20004KT 01/01 A2985 RMK A01 T00130013  RH  100%=      5-min Rain = 0
KDO1 181047Z 20005KT 01/01 A2985 RMK A01 T00130013  RH  100%=      5-min Rain = 0
KDO1 181048Z 19005KT 01/01 A2985 RMK A01 T00140014  RH  100%=      5-min Rain = 0
KDO1 181049Z 19005KT 02/02 A2985 RMK A01 T00150015  RH  100%=      5-min Rain = 0
KDO1 181050Z 19006KT 02/02 A2985 RMK A01 T00160016  RH  100%=      5-min Rain = 0
KDO1 181051Z 18006KT 02/02 A2985 RMK A01 T00170017  RH  100%=      5-min Rain = 0
KDO1 181052Z 18006KT 02/02 A2985 RMK A01 T00180018  RH  100%=      5-min Rain = 0
KDO1 181053Z 18005KT 02/02 A2984 RMK A01 T00180018  RH  100%=      5-min Rain = 0
KDO1 181054Z 18006KT 02/02 A2984 RMK A01 T00180018  RH  100%=      5-min Rain = 0
KDO1 181055Z 18006KT 02/02 A2985 RMK A01 T00180018  RH  100%=      5-min Rain = 0
KDO1 181056Z 19005KT 02/02 A2985 RMK A01 T00180018  RH  100%=      5-min Rain = 0
KDO1 181057Z 19005KT 02/02 A2985 RMK A01 T00180017  RH  100%=      5-min Rain = 0
KDO1 181058Z 19005KT 02/02 A2985 RMK A01 T00170017  RH  100%=      5-min Rain = 0
KDO1 181059Z 19005KT 02/02 A2984 RMK A01 T00160016  RH  100%=      5-min Rain = 0
KDO1 181100Z 19005KT 02/02 A2984 RMK A01 T00160015  RH  100%=      5-min Rain = 0
KDO1 181101Z 19004KT 02/02 A2984 RMK A01 T00160015  RH  100%=      5-min Rain = 0
KDO1 181102Z 19004KT 02/02 A2984 RMK A01 T00150015  RH  100%=      5-min Rain = 0
KDO1 181103Z 19004KT 02/02 A2984 RMK A01 T00150015  RH  100%=      5-min Rain = 0
KDO1 181104Z 19005KT 02/02 A2984 RMK A01 T00160015  RH  100%=      5-min Rain = 0
KDO1 181105Z 18005KT 02/02 A2984 RMK A01 T00160016  RH  100%=      5-min Rain = 0
KDO1 181106Z 19005KT 02/02 A2984 RMK A01 T00180018  RH  100%=      5-min Rain = 0
KDO1 181107Z 18004KT 02/02 A2984 RMK A01 T00190019  RH  100%=      5-min Rain = 0
KDO1 181108Z 19004KT 02/02 A2984 RMK A01 T00190019  RH  100%=      5-min Rain = 0
KDO1 181109Z 18005KT 02/02 A2984 RMK A01 T00190019  RH  100%=      5-min Rain = 0
KDO1 181110Z 18005KT 02/02 A2984 RMK A01 T00190019  RH  100%=      5-min Rain = 0
KDO1 181111Z 18005KT 02/02 A2983 RMK A01 T00190019  RH  100%=      5-min Rain = 0
KDO1 181112Z 18005KT 02/02 A2983 RMK A01 T00200019  RH  100%=      5-min Rain = 0
KDO1 181113Z 18005KT 02/02 A2983 RMK A01 T00200019  RH  100%=      5-min Rain = 0
KDO1 181114Z 18005KT 02/02 A2983 RMK A01 T00190019  RH  100%=      5-min Rain = 0
KDO1 181115Z 18005KT 02/02 A2983 RMK A01 T00190018  RH  100%=      5-min Rain = 0
KDO1 181116Z 19005KT 02/02 A2983 RMK A01 T00180018  RH  100%=      5-min Rain = 0
KDO1 181117Z 19004KT 02/02 A2983 RMK A01 T00180018  RH  100%=      5-min Rain = 0
KDO1 181118Z 19004KT 02/02 A2983 RMK A01 T00180018  RH  100%=      5-min Rain = 0
KDO1 181119Z 20004KT 02/02 A2983 RMK A01 T00170017  RH  100%=      5-min Rain = 0
KDO1 181120Z 20004KT 02/02 A2983 RMK A01 T00170017  RH  100%=      5-min Rain = 0
KDO1 181121Z 21004KT 02/02 A2983 RMK A01 T00170017  RH  100%=      5-min Rain = 0
KDO1 181122Z 21004KT 02/02 A2983 RMK A01 T00170016  RH  100%=      5-min Rain = 0
KDO1 181123Z 21003KT 02/02 A2983 RMK A01 T00170016  RH  100%=      5-min Rain = 0
KDO1 181124Z 22003KT 02/02 A2983 RMK A01 T00160016  RH  100%=      5-min Rain = 0
KDO1 181125Z 21003KT 02/02 A2983 RMK A01 T00160016  RH  100%=      5-min Rain = 0
KDO1 181126Z 21003KT 02/02 A2983 RMK A01 T00160016  RH  100%=      5-min Rain = 0
KDO1 181127Z 21003KT 02/02 A2982 RMK A01 T00160016  RH  100%=      5-min Rain = 0
KDO1 181128Z 20003KT 02/02 A2982 RMK A01 T00160016  RH  100%=      5-min Rain = 0
KDO1 181129Z 19004KT 02/02 A2982 RMK A01 T00160016  RH  100%=      5-min Rain = 0
KDO1 181130Z 19003KT 02/02 A2982 RMK A01 T00160016  RH  100%=      5-min Rain = 0
KDO1 181131Z 19004KT 02/02 A2982 RMK A01 T00160016  RH  100%=      5-min Rain = 0
KDO1 181132Z 19003KT 02/02 A2981 RMK A01 T00160016  RH  100%=      5-min Rain = 0
KDO1 181133Z 19003KT 02/02 A2981 RMK A01 T00160016  RH  100%=      5-min Rain = 0
KDO1 181134Z 20003KT 02/02 A2981 RMK A01 T00160016  RH  100%=      5-min Rain = 0
KDO1 181135Z 20003KT 02/02 A2981 RMK A01 T00160016  RH  100%=      5-min Rain = 0
KDO1 181136Z 22002KT 02/02 A2981 RMK A01 T00160016  RH  100%=      5-min Rain = 0
KDO1 181137Z 22002KT 02/02 A2981 RMK A01 T00160016  RH  100%=      5-min Rain = 0
KDO1 181138Z 24002KT 02/02 A2981 RMK A01 T00160016  RH  100%=      5-min Rain = 0
KDO1 181139Z 26002KT 02/02 A2981 RMK A01 T00160016  RH  100%=      5-min Rain = 0
KDO1 181140Z 26003KT 02/02 A2982 RMK A01 T00160016  RH  100%=      5-min Rain = 0
KDO1 181141Z 26003KT 02/02 A2982 RMK A01 T00160016  RH  100%=      5-min Rain = 0
KDO1 181142Z 25002KT 02/02 A2981 RMK A01 T00170017  RH  100%=      5-min Rain = 0
KDO1 181143Z 23002KT 02/02 A2981 RMK A01 T00170017  RH  100%=      5-min Rain = 0
KDO1 181144Z 21002KT 02/02 A2981 RMK A01 T00170017  RH  100%=      5-min Rain = 0
KDO1 181145Z 20002KT 02/02 A2981 RMK A01 T00170017  RH  100%=      5-min Rain = 0
KDO1 181146Z 20002KT 02/02 A298 RMK A01 T00170017  RH  100%=      5-min Rain = 0
KDO1 181147Z 21002KT 02/02 A298 RMK A01 T00170017  RH  100%=      5-min Rain = 0
KDO1 181148Z 21002KT 02/02 A298 RMK A01 T00170017  RH  100%=      5-min Rain = 0
KDO1 181149Z 21001KT 02/02 A298 RMK A01 T00170017  RH  100%=      5-min Rain = 0
KDO1 181150Z 22001KT 02/02 A298 RMK A01 T00170017  RH  100%=      5-min Rain = 0
KDO1 181151Z 22001KT 02/02 A298 RMK A01 T00180018  RH  100%=      5-min Rain = 0
KDO1 181152Z 22002KT 02/02 A298 RMK A01 T00170017  RH  100%=      5-min Rain = 0
KDO1 181153Z 23002KT 02/02 A298 RMK A01 T00170017  RH  100%=      5-min Rain = 0
KDO1 181154Z 24002KT 02/02 A298 RMK A01 T00170017  RH  100%=      5-min Rain = 0
KDO1 181155Z 24002KT 02/02 A298 RMK A01 T00170017  RH  100%=      5-min Rain = 0
KDO1 181156Z 24002KT 02/02 A298 RMK A01 T00170017  RH  100%=      5-min Rain = 0
KDO1 181157Z 24001KT 02/02 A298 RMK A01 T00170017  RH  100%=      5-min Rain = 0
KDO1 181158Z 24001KT 02/02 A298 RMK A01 T00170017  RH  100%=      5-min Rain = 0
KDO1 181159Z 25001KT 02/02 A298 RMK A01 T00170017  RH  100%=      5-min Rain = 0
KDO1 181200Z 25002KT 02/02 A298 RMK A01 T00170017  RH  100%=      5-min Rain = 0
KDO1 181201Z 23002KT 02/02 A2979 RMK A01 T00170017  RH  100%=      5-min Rain = 0
KDO1 181202Z 23001KT 02/02 A2979 RMK A01 T00180018  RH  100%=      5-min Rain = 0
KDO1 181203Z 23002KT 02/02 A2979 RMK A01 T00180018  RH  100%=      5-min Rain = 0
KDO1 181204Z 24002KT 02/02 A2979 RMK A01 T00180018  RH  100%=      5-min Rain = 0
KDO1 181205Z 25002KT 02/02 A2979 RMK A01 T00180018  RH  100%=      5-min Rain = 0
KDO1 181206Z 26002KT 02/02 A2979 RMK A01 T00180018  RH  100%=      5-min Rain = 0
KDO1 181207Z 26002KT 02/02 A2979 RMK A01 T00190018  RH  100%=      5-min Rain = 0
KDO1 181208Z 25002KT 02/02 A2979 RMK A01 T00190019  RH  100%=      5-min Rain = 0
KDO1 181209Z 26002KT 02/02 A2979 RMK A01 T00190019  RH  100%=      5-min Rain = 0
KDO1 181210Z 25002KT 02/02 A2979 RMK A01 T00200020  RH  100%=      5-min Rain = 0
KDO1 181211Z 24001KT 02/02 A2979 RMK A01 T00200019  RH  100%=      5-min Rain = 0
KDO1 181212Z 22001KT 02/02 A2979 RMK A01 T00200020  RH  100%=      5-min Rain = 0
KDO1 181213Z 23001KT 02/02 A2979 RMK A01 T00200020  RH  100%=      5-min Rain = 0
KDO1 181214Z 20002KT 02/02 A2979 RMK A01 T00200020  RH  100%=      5-min Rain = 0
KDO1 181215Z 18002KT 02/02 A2979 RMK A01 T00200020  RH  100%=      5-min Rain = 0
KDO1 181216Z 18002KT 02/02 A2978 RMK A01 T00200020  RH  100%=      5-min Rain = 0
KDO1 181217Z 17003KT 02/02 A2978 RMK A01 T00210020  RH  100%=      5-min Rain = 0
KDO1 181218Z 18003KT 02/02 A2978 RMK A01 T00210021  RH  100%=      5-min Rain = 0
KDO1 181219Z 20003KT 02/02 A2978 RMK A01 T00210021  RH  100%=      5-min Rain = 0
KDO1 181220Z 22002KT 02/02 A2978 RMK A01 T00210021  RH  100%=      5-min Rain = 0
KDO1 181221Z 22002KT 02/02 A2978 RMK A01 T00210021  RH  100%=      5-min Rain = 0
KDO1 181222Z 21002KT 02/02 A2978 RMK A01 T00210021  RH  100%=      5-min Rain = 0
KDO1 181223Z 20003KT 02/02 A2978 RMK A01 T00210021  RH  100%=      5-min Rain = 0
KDO1 181224Z 20002KT 02/02 A2978 RMK A01 T00210021  RH  100%=      5-min Rain = 0
KDO1 181225Z 21002KT 02/02 A2978 RMK A01 T00210021  RH  100%=      5-min Rain = 0
KDO1 181226Z 21002KT 02/02 A2978 RMK A01 T00210021  RH  100%=      5-min Rain = 0
KDO1 181227Z 22001KT 02/02 A2978 RMK A01 T00210021  RH  100%=      5-min Rain = 0
KDO1 181228Z 23001KT 02/02 A2978 RMK A01 T00210021  RH  100%=      5-min Rain = 0
KDO1 181229Z 23001KT 02/02 A2978 RMK A01 T00210021  RH  100%=      5-min Rain = 0
KDO1 181230Z 21001KT 02/02 A2978 RMK A01 T00210021  RH  100%=      5-min Rain = 0
KDO1 181231Z 22001KT 02/02 A2978 RMK A01 T00210021  RH  100%=      5-min Rain = 0
KDO1 181232Z 24001KT 02/02 A2978 RMK A01 T00210021  RH  100%=      5-min Rain = 0
KDO1 181233Z 25002KT 02/02 A2978 RMK A01 T00210021  RH  100%=      5-min Rain = 0
KDO1 181234Z 27002KT 02/02 A2978 RMK A01 T00210021  RH  100%=      5-min Rain = 0
KDO1 181235Z 27003KT 02/02 A2979 RMK A01 T00210021  RH  100%=      5-min Rain = 0
KDO1 181236Z 27003KT 02/02 A2979 RMK A01 T00210021  RH  100%=      5-min Rain = 0
KDO1 181237Z 27002KT 02/02 A2978 RMK A01 T00210021  RH  100%=      5-min Rain = 0
KDO1 181238Z 26002KT 02/02 A2978 RMK A01 T00210021  RH  100%=      5-min Rain = 0
KDO1 181239Z 24001KT 02/02 A2978 RMK A01 T00220021  RH  100%=      5-min Rain = 0
KDO1 181240Z 24001KT 02/02 A2978 RMK A01 T00220021  RH  100%=      5-min Rain = 0
KDO1 181241Z 26002KT 02/02 A2978 RMK A01 T00220022  RH  100%=      5-min Rain = 0
KDO1 181242Z 25003KT 02/02 A2978 RMK A01 T00220021  RH  100%=      5-min Rain = 0
KDO1 181243Z 24003KT 02/02 A2978 RMK A01 T00220021  RH  100%=      5-min Rain = 0
KDO1 181244Z 24003KT 02/02 A2978 RMK A01 T00220021  RH  100%=      5-min Rain = 0
KDO1 181245Z 24003KT 02/02 A2978 RMK A01 T00210021  RH  100%=      5-min Rain = 0
KDO1 181246Z 24002KT 02/02 A2978 RMK A01 T00220022  RH  100%=      5-min Rain = 0
KDO1 181247Z 24002KT 02/02 A2978 RMK A01 T00210021  RH  100%=      5-min Rain = 0
KDO1 181248Z 22002KT 02/02 A2978 RMK A01 T00210021  RH  100%=      5-min Rain = 0
KDO1 181249Z 21002KT 02/02 A2978 RMK A01 T00210021  RH  100%=      5-min Rain = 0
KDO1 181250Z 21002KT 02/02 A2978 RMK A01 T00210021  RH  100%=      5-min Rain = 0
KDO1 181251Z 20002KT 02/02 A2978 RMK A01 T00200020  RH  100%=      5-min Rain = 0
KDO1 181252Z 20002KT 02/02 A2978 RMK A01 T00210020  RH  100%=      5-min Rain = 0
KDO1 181253Z 20002KT 02/02 A2978 RMK A01 T00210021  RH  100%=      5-min Rain = 0
KDO1 181254Z 22003KT 02/02 A2978 RMK A01 T00200020  RH  100%=      5-min Rain = 0
KDO1 181255Z 23003KT 02/02 A2978 RMK A01 T00200020  RH  100%=      5-min Rain = 0
KDO1 181256Z 23003KT 02/02 A2978 RMK A01 T00200020  RH  100%=      5-min Rain = 0
KDO1 181257Z 23003KT 02/02 A2978 RMK A01 T00200019  RH  100%=      5-min Rain = 0
KDO1 181258Z 22003KT 02/02 A2978 RMK A01 T00190019  RH  100%=      5-min Rain = 0
KDO1 181259Z 22003KT 02/02 A2978 RMK A01 T00190019  RH  100%=      5-min Rain = 0
KDO1 181300Z 21003KT 02/02 A2978 RMK A01 T00190019  RH  100%=      5-min Rain = 0
KDO1 181301Z 22003KT 02/02 A2978 RMK A01 T00190019  RH  100%=      5-min Rain = 0
KDO1 181302Z 23003KT 02/02 A2978 RMK A01 T00190019  RH  100%=      5-min Rain = 0
KDO1 181303Z 23002KT 02/02 A2978 RMK A01 T00180018  RH  100%=      5-min Rain = 0
KDO1 181304Z 23002KT 02/02 A2978 RMK A01 T00180018  RH  100%=      5-min Rain = 0
KDO1 181305Z 21001KT 02/02 A2978 RMK A01 T00180018  RH  100%=      5-min Rain = 0
KDO1 181306Z 17001KT 02/02 A2978 RMK A01 T00180018  RH  100%=      5-min Rain = 0
KDO1 181307Z 16001KT 02/02 A2978 RMK A01 T00180018  RH  100%=      5-min Rain = 0
KDO1 181308Z 16001KT 02/02 A2978 RMK A01 T00170017  RH  100%=      5-min Rain = 0
KDO1 181309Z 17002KT 02/02 A2978 RMK A01 T00170017  RH  100%=      5-min Rain = 0
KDO1 181310Z 17002KT 02/02 A2978 RMK A01 T00170017  RH  100%=      5-min Rain = 0
KDO1 181311Z 18002KT 02/02 A2978 RMK A01 T00170017  RH  100%=      5-min Rain = 0
KDO1 181312Z 18002KT 02/02 A2978 RMK A01 T00170017  RH  100%=      5-min Rain = 0
KDO1 181313Z 18002KT 02/02 A2978 RMK A01 T00170016  RH  100%=      5-min Rain = 0
KDO1 181314Z 18002KT 02/02 A2978 RMK A01 T00160016  RH  100%=      5-min Rain = 0
KDO1 181315Z 17002KT 02/02 A2978 RMK A01 T00160016  RH  100%=      5-min Rain = 0
KDO1 181316Z 18002KT 02/02 A2978 RMK A01 T00160016  RH  100%=      5-min Rain = 0
KDO1 181317Z 20002KT 02/02 A2978 RMK A01 T00170016  RH  100%=      5-min Rain = 0
KDO1 181318Z 19002KT 02/02 A2978 RMK A01 T00170016  RH  100%=      5-min Rain = 0
KDO1 181319Z 17002KT 02/02 A2978 RMK A01 T00160016  RH  100%=      5-min Rain = 0
KDO1 181320Z 17002KT 02/02 A2978 RMK A01 T00160016  RH  100%=      5-min Rain = 0
KDO1 181321Z 18001KT 02/02 A2978 RMK A01 T00170016  RH  100%=      5-min Rain = 0
KDO1 181322Z 20001KT 02/02 A2978 RMK A01 T00160016  RH  100%=      5-min Rain = 0
KDO1 181323Z 21001KT 02/02 A2978 RMK A01 T00170016  RH  100%=      5-min Rain = 0
KDO1 181324Z 23001KT 02/02 A2978 RMK A01 T00170016  RH  100%=      5-min Rain = 0
KDO1 181325Z 25002KT 02/02 A2978 RMK A01 T00160016  RH  100%=      5-min Rain = 0
KDO1 181326Z 26002KT 02/02 A2979 RMK A01 T00160016  RH  100%=      5-min Rain = 0
KDO1 181327Z 25001KT 02/02 A2978 RMK A01 T00160016  RH  100%=      5-min Rain = 0
KDO1 181328Z 26001KT 02/02 A2978 RMK A01 T00160016  RH  100%=      5-min Rain = 0
KDO1 181329Z 26001KT 02/02 A2978 RMK A01 T00160016  RH  100%=      5-min Rain = 0
KDO1 181330Z 26002KT 02/02 A2979 RMK A01 T00160016  RH  100%=      5-min Rain = 0
KDO1 181331Z 26002KT 02/02 A2979 RMK A01 T00170016  RH  100%=      5-min Rain = 0
KDO1 181332Z 28002KT 02/02 A2979 RMK A01 T00170017  RH  100%=      5-min Rain = 0
KDO1 181333Z 28002KT 02/02 A2979 RMK A01 T00170017  RH  100%=      5-min Rain = 0
KDO1 181334Z 27001KT 02/02 A2979 RMK A01 T00170017  RH  100%=      5-min Rain = 0
KDO1 181335Z 26001KT 02/02 A2979 RMK A01 T00170017  RH  100%=      5-min Rain = 0
KDO1 181336Z 26001KT 02/02 A2979 RMK A01 T00180017  RH  100%=      5-min Rain = 0
KDO1 181337Z 25001KT 02/02 A2979 RMK A01 T00180017  RH  100%=      5-min Rain = 0
KDO1 181338Z 24001KT 02/02 A2978 RMK A01 T00170017  RH  100%=      5-min Rain = 0
KDO1 181339Z 23001KT 02/02 A2978 RMK A01 T00170017  RH  100%=      5-min Rain = 0
KDO1 181340Z 24001KT 02/02 A2978 RMK A01 T00180017  RH  100%=      5-min Rain = 0
KDO1 181341Z 22001KT 02/02 A2978 RMK A01 T00180018  RH  100%=      5-min Rain = 0
KDO1 181342Z 23001KT 02/02 A2978 RMK A01 T00180018  RH  100%=      5-min Rain = 0
KDO1 181343Z 19002KT 02/02 A2978 RMK A01 T00180018  RH  100%=      5-min Rain = 0
KDO1 181344Z 22002KT 02/02 A2977 RMK A01 T00180018  RH  100%=      5-min Rain = 0
KDO1 181345Z 17002KT 02/02 A2977 RMK A01 T00180018  RH  100%=      5-min Rain = 0
KDO1 181346Z 16002KT 02/02 A2977 RMK A01 T00180018  RH  100%=      5-min Rain = 0
KDO1 181347Z 16003KT 02/02 A2977 RMK A01 T00190019  RH  100%=      5-min Rain = 0
KDO1 181348Z 16003KT 02/02 A2977 RMK A01 T00190018  RH  100%=      5-min Rain = 0
KDO1 181349Z 15002KT 02/02 A2977 RMK A01 T00190019  RH  100%=      5-min Rain = 0
KDO1 181350Z 15002KT 02/02 A2977 RMK A01 T00190019  RH  100%=      5-min Rain = 0
KDO1 181351Z 17002KT 02/02 A2977 RMK A01 T00190019  RH  100%=      5-min Rain = 0
KDO1 181352Z 17003KT 02/02 A2977 RMK A01 T00200019  RH  100%=      5-min Rain = 0
KDO1 181353Z 16003KT 02/02 A2977 RMK A01 T00200020  RH  100%=      5-min Rain = 0
KDO1 181354Z 15002KT 02/02 A2977 RMK A01 T00200020  RH  100%=      5-min Rain = 0
KDO1 181355Z 13001KT 02/02 A2977 RMK A01 T00200020  RH  100%=      5-min Rain = 0
KDO1 181356Z 12001KT 02/02 A2977 RMK A01 T00200020  RH  100%=      5-min Rain = 0
KDO1 181357Z 15001KT 02/02 A2977 RMK A01 T00200020  RH  100%=      5-min Rain = 0
KDO1 181358Z 16001KT 02/02 A2977 RMK A01 T00200020  RH  100%=      5-min Rain = 0
KDO1 181359Z 16002KT 02/02 A2977 RMK A01 T00190019  RH  100%=      5-min Rain = 0
KDO1 181400Z 16002KT 02/02 A2977 RMK A01 T00190019  RH  100%=      5-min Rain = 0
KDO1 181401Z 15002KT 02/02 A2977 RMK A01 T00180018  RH  100%=      5-min Rain = 0
KDO1 181402Z 14002KT 02/02 A2977 RMK A01 T00180018  RH  100%=      5-min Rain = 0
KDO1 181403Z 14002KT 02/02 A2977 RMK A01 T00170017  RH  100%=      5-min Rain = 0
KDO1 181404Z 14002KT 02/02 A2977 RMK A01 T00170017  RH  100%=      5-min Rain = 0
KDO1 181405Z 13002KT 02/02 A2977 RMK A01 T00170017  RH  100%=      5-min Rain = 0
KDO1 181406Z 13002KT 02/02 A2977 RMK A01 T00170017  RH  100%=      5-min Rain = 0
KDO1 181407Z 12002KT 02/02 A2977 RMK A01 T00170017  RH  100%=      5-min Rain = 0
KDO1 181408Z 13002KT 02/02 A2977 RMK A01 T00170016  RH  100%=      5-min Rain = 0
KDO1 181409Z 14002KT 02/02 A2977 RMK A01 T00160016  RH  100%=      5-min Rain = 0
KDO1 181410Z 15002KT 02/02 A2977 RMK A01 T00160016  RH  100%=      5-min Rain = 0
KDO1 181411Z 15002KT 02/02 A2977 RMK A01 T00160016  RH  100%=      5-min Rain = 0
KDO1 181412Z 15003KT 02/02 A2977 RMK A01 T00160016  RH  100%=      5-min Rain = 0
KDO1 181413Z 15003KT 02/02 A2977 RMK A01 T00160016  RH  100%=      5-min Rain = 0
KDO1 181414Z 15003KT 02/02 A2977 RMK A01 T00170017  RH  100%=      5-min Rain = 0
KDO1 181415Z 15003KT 02/02 A2977 RMK A01 T00170017  RH  100%=      5-min Rain = 0
KDO1 181416Z 15003KT 02/02 A2977 RMK A01 T00170017  RH  100%=      5-min Rain = 0
KDO1 181417Z 15003KT 02/02 A2976 RMK A01 T00170017  RH  100%=      5-min Rain = 0
KDO1 181418Z 15003KT 02/02 A2976 RMK A01 T00170017  RH  100%=      5-min Rain = 0
KDO1 181419Z 15003KT 02/02 A2976 RMK A01 T00180018  RH  100%=      5-min Rain = 0
KDO1 181420Z 15003KT 02/02 A2976 RMK A01 T00180018  RH  100%=      5-min Rain = 0
KDO1 181421Z 15003KT 02/02 A2976 RMK A01 T00180018  RH  100%=      5-min Rain = 0
KDO1 181422Z 14002KT 02/02 A2976 RMK A01 T00180018  RH  100%=      5-min Rain = 0
KDO1 181423Z 13002KT 02/02 A2976 RMK A01 T00190018  RH  100%=      5-min Rain = 0
KDO1 181424Z 14002KT 02/02 A2976 RMK A01 T00180018  RH  100%=      5-min Rain = 0
KDO1 181425Z 14003KT 02/02 A2976 RMK A01 T00180018  RH  100%=      5-min Rain = 0
KDO1 181426Z 14002KT 02/02 A2976 RMK A01 T00180018  RH  100%=      5-min Rain = 0
KDO1 181427Z 14003KT 02/02 A2976 RMK A01 T00180018  RH  100%=      5-min Rain = 0
KDO1 181428Z 15003KT 02/02 A2976 RMK A01 T00180018  RH  100%=      5-min Rain = 0
KDO1 181429Z 15002KT 02/02 A2976 RMK A01 T00190019  RH  100%=      5-min Rain = 0
KDO1 181430Z 14002KT 02/02 A2976 RMK A01 T00190018  RH  100%=      5-min Rain = 0
KDO1 181431Z 16002KT 02/02 A2976 RMK A01 T00190018  RH  100%=      5-min Rain = 0
KDO1 181432Z 16002KT 02/02 A2976 RMK A01 T00190019  RH  100%=      5-min Rain = 0
KDO1 181433Z 15002KT 02/02 A2976 RMK A01 T00190019  RH  100%=      5-min Rain = 0
KDO1 181434Z 15002KT 02/02 A2976 RMK A01 T00200020  RH  100%=      5-min Rain = 0
KDO1 181435Z 15002KT 02/02 A2976 RMK A01 T00200019  RH  100%=      5-min Rain = 0
KDO1 181436Z 15002KT 02/02 A2976 RMK A01 T00200020  RH  100%=      5-min Rain = 0
KDO1 181437Z 16002KT 02/02 A2976 RMK A01 T00200020  RH  100%=      5-min Rain = 0
KDO1 181438Z 15003KT 02/02 A2976 RMK A01 T00200020  RH  100%=      5-min Rain = 0
KDO1 181439Z 15002KT 02/02 A2976 RMK A01 T00200020  RH  100%=      5-min Rain = 0
KDO1 181440Z 15003KT 02/02 A2976 RMK A01 T00210020  RH  100%=      5-min Rain = 0
KDO1 181441Z 15003KT 02/02 A2976 RMK A01 T00210021  RH  100%=      5-min Rain = 0
KDO1 181442Z 15004KT 02/02 A2976 RMK A01 T00210021  RH  100%=      5-min Rain = 0
KDO1 181443Z 15004KT 02/02 A2976 RMK A01 T00210021  RH  100%=      5-min Rain = 0
KDO1 181444Z 15003KT 02/02 A2976 RMK A01 T00210021  RH  100%=      5-min Rain = 0
KDO1 181445Z 14002KT 02/02 A2976 RMK A01 T00220021  RH  100%=      5-min Rain = 0
KDO1 181446Z 15002KT 02/02 A2976 RMK A01 T00220022  RH  100%=      5-min Rain = 0
KDO1 181447Z 15002KT 02/02 A2975 RMK A01 T00220022  RH  100%=      5-min Rain = 0
KDO1 181448Z 16003KT 02/02 A2975 RMK A01 T00220022  RH  100%=      5-min Rain = 0
KDO1 181449Z 15003KT 02/02 A2975 RMK A01 T00220022  RH  100%=      5-min Rain = 0
KDO1 181450Z 16004KT 02/02 A2975 RMK A01 T00220022  RH  100%=      5-min Rain = 0
KDO1 181451Z 15003KT 02/02 A2975 RMK A01 T00220022  RH  100%=      5-min Rain = 0
KDO1 181452Z 15003KT 02/02 A2975 RMK A01 T00220022  RH  100%=      5-min Rain = 0
KDO1 181453Z 15002KT 02/02 A2975 RMK A01 T00220022  RH  100%=      5-min Rain = 0
KDO1 181454Z 15003KT 02/02 A2975 RMK A01 T00220022  RH  100%=      5-min Rain = 0
KDO1 181455Z 15002KT 02/02 A2975 RMK A01 T00230023  RH  100%=      5-min Rain = 0
KDO1 181456Z 15003KT 02/02 A2975 RMK A01 T00230023  RH  100%=      5-min Rain = 0
KDO1 181457Z 16004KT 02/02 A2975 RMK A01 T00230023  RH  100%=      5-min Rain = 0
KDO1 181458Z 15002KT 02/02 A2975 RMK A01 T00230023  RH  100%=      5-min Rain = 0
KDO1 181459Z 16003KT 02/02 A2975 RMK A01 T00230023  RH  100%=      5-min Rain = 0
KDO1 181500Z 15004KT 02/02 A2975 RMK A01 T00230023  RH  100%=      5-min Rain = 0
KDO1 181501Z 15004KT 02/02 A2975 RMK A01 T00230023  RH  100%=      5-min Rain = 0
KDO1 181502Z 15003KT 02/02 A2975 RMK A01 T00230023  RH  100%=      5-min Rain = 0
KDO1 181503Z 15003KT 02/02 A2975 RMK A01 T00230023  RH  100%=      5-min Rain = 0
KDO1 181504Z 15003KT 02/02 A2975 RMK A01 T00230023  RH  100%=      5-min Rain = 0
KDO1 181505Z 15003KT 02/02 A2975 RMK A01 T00230023  RH  100%=      5-min Rain = 0
KDO1 181506Z 15003KT 02/02 A2975 RMK A01 T00240024  RH  100%=      5-min Rain = 0
KDO1 181507Z 15004KT 02/02 A2975 RMK A01 T00240023  RH  100%=      5-min Rain = 0
KDO1 181508Z 15004KT 02/02 A2975 RMK A01 T00240023  RH  100%=      5-min Rain = 0
KDO1 181509Z 15004KT 02/02 A2975 RMK A01 T00240024  RH  100%=      5-min Rain = 0
KDO1 181510Z 14003KT 02/02 A2975 RMK A01 T00240023  RH  100%=      5-min Rain = 0
KDO1 181511Z 14003KT 02/02 A2975 RMK A01 T00240024  RH  100%=      5-min Rain = 0
KDO1 181512Z 14003KT 02/02 A2975 RMK A01 T00240024  RH  100%=      5-min Rain = 0
KDO1 181513Z 15003KT 02/02 A2974 RMK A01 T00240024  RH  100%=      5-min Rain = 0
KDO1 181514Z 15003KT 02/02 A2974 RMK A01 T00240024  RH  100%=      5-min Rain = 0
KDO1 181515Z 15004KT 02/02 A2974 RMK A01 T00240024  RH  100%=      5-min Rain = 0
KDO1 181516Z 15004KT 02/02 A2974 RMK A01 T00240024  RH  100%=      5-min Rain = 0
KDO1 181517Z 14003KT 02/02 A2974 RMK A01 T00240024  RH  100%=      5-min Rain = 0
KDO1 181518Z 15004KT 03/02 A2974 RMK A01 T00250024  RH  100%=      5-min Rain = 0
KDO1 181519Z 15004KT 03/03 A2975 RMK A01 T00250025  RH  100%=      5-min Rain = 0
KDO1 181520Z 15004KT 03/03 A2975 RMK A01 T00250025  RH  100%=      5-min Rain = 0
KDO1 181521Z 15004KT 03/03 A2974 RMK A01 T00260026  RH  100%=      5-min Rain = 0
KDO1 181522Z 15003KT 03/03 A2974 RMK A01 T00260025  RH  100%=      5-min Rain = 0
KDO1 181523Z 15003KT 03/03 A2975 RMK A01 T00260026  RH  100%=      5-min Rain = 0
KDO1 181524Z 16003KT 03/03 A2975 RMK A01 T00270026  RH  100%=      5-min Rain = 0
KDO1 181525Z 15002KT 03/03 A2975 RMK A01 T00270027  RH  100%=      5-min Rain = 0
KDO1 181526Z 15003KT 03/03 A2975 RMK A01 T00280027  RH  100%=      5-min Rain = 0
KDO1 181527Z 16002KT 03/03 A2975 RMK A01 T00280028  RH  100%=      5-min Rain = 0
KDO1 181528Z 16001KT 03/03 A2975 RMK A01 T00280028  RH  100%=      5-min Rain = 0
KDO1 181529Z 15001KT 03/03 A2974 RMK A01 T00280028  RH  100%=      5-min Rain = 0
KDO1 181530Z 15002KT 03/03 A2974 RMK A01 T00280028  RH  100%=      5-min Rain = 0
KDO1 181531Z 16002KT 03/03 A2974 RMK A01 T00290029  RH  100%=      5-min Rain = 0
KDO1 181532Z 16004KT 03/03 A2974 RMK A01 T00300030  RH  100%=      5-min Rain = 0
KDO1 181533Z 16004KT 03/03 A2974 RMK A01 T00300030  RH  100%=      5-min Rain = 0
KDO1 181534Z 17004KT 03/03 A2974 RMK A01 T00300030  RH  100%=      5-min Rain = 0
KDO1 181535Z 17004KT 03/03 A2974 RMK A01 T00310031  RH  100%=      5-min Rain = 0
KDO1 181536Z 16003KT 03/03 A2974 RMK A01 T00310031  RH  100%=      5-min Rain = 0
KDO1 181537Z 16003KT 03/03 A2974 RMK A01 T00310031  RH  100%=      5-min Rain = 0
KDO1 181538Z 16003KT 03/03 A2973 RMK A01 T00320032  RH  100%=      5-min Rain = 0
KDO1 181539Z 16004KT 03/03 A2973 RMK A01 T00320032  RH  100%=      5-min Rain = 0
KDO1 181540Z 17004KT 03/03 A2973 RMK A01 T00330033  RH  100%=      5-min Rain = 0
KDO1 181541Z 16004KT 03/03 A2973 RMK A01 T00330033  RH  100%=      5-min Rain = 0
KDO1 181542Z 15003KT 03/03 A2973 RMK A01 T00330033  RH  100%=      5-min Rain = 0
KDO1 181543Z 15003KT 03/03 A2973 RMK A01 T00340034  RH  100%=      5-min Rain = 0
KDO1 181544Z 15004KT 03/03 A2973 RMK A01 T00340034  RH  100%=      5-min Rain = 0
KDO1 181545Z 15003KT 04/04 A2973 RMK A01 T00350035  RH  100%=      5-min Rain = 0
KDO1 181546Z 16003KT 04/04 A2973 RMK A01 T00350035  RH  100%=      5-min Rain = 0
KDO1 181547Z 13003KT 04/04 A2973 RMK A01 T00360035  RH  100%=      5-min Rain = 0
KDO1 181548Z 14004KT 04/04 A2973 RMK A01 T00360036  RH  100%=      5-min Rain = 0
KDO1 181549Z 16004KT 04/04 A2974 RMK A01 T00370037  RH  100%=      5-min Rain = 0
KDO1 181550Z 15005KT 04/04 A2973 RMK A01 T00370036  RH  100%=      5-min Rain = 0
KDO1 181551Z 14005KT 04/04 A2973 RMK A01 T00360036  RH  100%=      5-min Rain = 0
KDO1 181552Z 15005KT 04/04 A2973 RMK A01 T00360036  RH  100%=      5-min Rain = 0
KDO1 181553Z 15005KT 04/04 A2973 RMK A01 T00370037  RH  100%=      5-min Rain = 0
KDO1 181554Z 15004KT 04/04 A2973 RMK A01 T00370037  RH  100%=      5-min Rain = 0
KDO1 181555Z 14004KT 04/04 A2973 RMK A01 T00370037  RH  100%=      5-min Rain = 0
KDO1 181556Z 16005KT 04/04 A2973 RMK A01 T00370037  RH  100%=      5-min Rain = 0
KDO1 181557Z 14004KT 04/04 A2973 RMK A01 T00370037  RH  100%=      5-min Rain = 0
KDO1 181558Z 14004KT 04/04 A2973 RMK A01 T00380037  RH  100%=      5-min Rain = 0
KDO1 181559Z 15004KT 04/04 A2973 RMK A01 T00380038  RH  100%=      5-min Rain = 0
KDO1 181600Z 14003KT 04/04 A2972 RMK A01 T00370037  RH  100%=      5-min Rain = 0
KDO1 181601Z 13003KT 04/04 A2972 RMK A01 T00370037  RH  100%=      5-min Rain = 0
KDO1 181602Z 12005KT 04/04 A2972 RMK A01 T00380038  RH  100%=      5-min Rain = 0
KDO1 181603Z 13005KT 04/04 A2972 RMK A01 T00380038  RH  100%=      5-min Rain = 0
KDO1 181604Z 14006KT 04/04 A2972 RMK A01 T00380038  RH  100%=      5-min Rain = 0
KDO1 181605Z 14005KT 04/04 A2972 RMK A01 T00390039  RH  100%=      5-min Rain = 0
KDO1 181606Z 14006KT 04/04 A2972 RMK A01 T00400039  RH  100%=      5-min Rain = 0
KDO1 181607Z 15006KT 04/04 A2972 RMK A01 T00400040  RH  100%=      5-min Rain = 0
KDO1 181608Z 15006KT 04/04 A2972 RMK A01 T00400040  RH  100%=      5-min Rain = 0
KDO1 181609Z 15005KT 04/04 A2972 RMK A01 T00420042  RH  100%=      5-min Rain = 0
KDO1 181610Z 15006KT 04/04 A2972 RMK A01 T00430043  RH  100%=      5-min Rain = 0
KDO1 181611Z 16005KT 04/04 A2972 RMK A01 T00430043  RH  100%=      5-min Rain = 0
KDO1 181612Z 17004KT 04/04 A2972 RMK A01 T00440043  RH  100%=      5-min Rain = 0
KDO1 181613Z 16003KT 05/04 A2973 RMK A01 T00450044  RH  100%=      5-min Rain = 0
KDO1 181614Z 15003KT 05/05 A2973 RMK A01 T00450045  RH  100%=      5-min Rain = 0
KDO1 181615Z 16004KT 05/05 A2973 RMK A01 T00470047  RH  100%=      5-min Rain = 0
KDO1 181616Z 17005KT 05/05 A2973 RMK A01 T00470047  RH  100%=      5-min Rain = 0
KDO1 181617Z 17004KT 05/05 A2973 RMK A01 T00460046  RH  100%=      5-min Rain = 0
KDO1 181618Z 17004KT 05/05 A2972 RMK A01 T00460046  RH  100%=      5-min Rain = 0
KDO1 181619Z 16003KT 05/05 A2972 RMK A01 T00460046  RH  100%=      5-min Rain = 0
KDO1 181620Z 17003KT 05/05 A2972 RMK A01 T00470047  RH  100%=      5-min Rain = 0
KDO1 181621Z 18004KT 05/05 A2972 RMK A01 T00480048  RH  100%=      5-min Rain = 0
KDO1 181622Z 16004KT 05/05 A2972 RMK A01 T00490048  RH  100%=      5-min Rain = 0
KDO1 181623Z 15003KT 05/05 A2972 RMK A01 T00500050  RH  100%=      5-min Rain = 0
KDO1 181624Z 15003KT 05/05 A2972 RMK A01 T00500050  RH  100%=      5-min Rain = 0
KDO1 181625Z 15003KT 05/05 A2972 RMK A01 T00510051  RH  100%=      5-min Rain = 0
KDO1 181626Z 15003KT 05/05 A2972 RMK A01 T00500050  RH  100%=      5-min Rain = 0
KDO1 181627Z 16003KT 05/05 A2972 RMK A01 T00490049  RH  100%=      5-min Rain = 0
KDO1 181628Z 16002KT 05/05 A2972 RMK A01 T00500049  RH  100%=      5-min Rain = 0
KDO1 181629Z 16003KT 05/05 A2972 RMK A01 T00500050  RH  100%=      5-min Rain = 0
KDO1 181630Z 16004KT 05/05 A2972 RMK A01 T00500050  RH  100%=      5-min Rain = 0
KDO1 181631Z 16004KT 05/05 A2971 RMK A01 T00500050  RH  100%=      5-min Rain = 0
KDO1 181632Z 15003KT 05/05 A2971 RMK A01 T00500050  RH  100%=      5-min Rain = 0
KDO1 181633Z 15005KT 05/05 A2971 RMK A01 T00510051  RH  100%=      5-min Rain = 0
KDO1 181634Z 16004KT 05/05 A2971 RMK A01 T00510051  RH  100%=      5-min Rain = 0
KDO1 181635Z 14004KT 05/05 A2971 RMK A01 T00520052  RH  100%=      5-min Rain = 0
KDO1 181636Z 14004KT 05/05 A2971 RMK A01 T00530053  RH  100%=      5-min Rain = 0
KDO1 181637Z 16004KT 05/05 A2971 RMK A01 T00540054  RH  100%=      5-min Rain = 0
KDO1 181638Z 13004KT 05/05 A2971 RMK A01 T00540054  RH  100%=      5-min Rain = 0
KDO1 181639Z 14003KT 05/05 A2971 RMK A01 T00540053  RH  099%=      5-min Rain = 0
KDO1 181640Z 12002KT 06/05 A2971 RMK A01 T00550052  RH  098%=      5-min Rain = 0
KDO1 181641Z 11003KT 06/05 A2971 RMK A01 T00550053  RH  099%=      5-min Rain = 0
KDO1 181642Z 12003KT 06/06 A2971 RMK A01 T00560055  RH  100%=      5-min Rain = 0
KDO1 181643Z 13004KT 06/06 A2971 RMK A01 T00570057  RH  100%=      5-min Rain = 0
KDO1 181644Z 14005KT 06/06 A2971 RMK A01 T00580056  RH  099%=      5-min Rain = 0
KDO1 181645Z 14004KT 06/06 A2971 RMK A01 T00580055  RH  098%=      5-min Rain = 0
KDO1 181646Z 15004KT 06/05 A2971 RMK A01 T00570054  RH  098%=      5-min Rain = 0
KDO1 181647Z 15005KT 06/06 A2971 RMK A01 T00580055  RH  098%=      5-min Rain = 0
KDO1 181648Z 14003KT 06/05 A2971 RMK A01 T00580054  RH  097%=      5-min Rain = 0
KDO1 181649Z 15003KT 06/05 A297 RMK A01 T00580054  RH  097%=      5-min Rain = 0
KDO1 181650Z 15002KT 06/05 A297 RMK A01 T00590054  RH  097%=      5-min Rain = 0
KDO1 181651Z 14001KT 06/06 A297 RMK A01 T00600056  RH  097%=      5-min Rain = 0
KDO1 181652Z 15000KT 06/06 A297 RMK A01 T00610058  RH  098%=      5-min Rain = 0
KDO1 181653Z 11002KT 06/06 A297 RMK A01 T00620056  RH  096%=      5-min Rain = 0
KDO1 181654Z 12003KT 06/06 A297 RMK A01 T00630057  RH  096%=      5-min Rain = 0
KDO1 181655Z 17002KT 06/06 A297 RMK A01 T00640055  RH  094%=      5-min Rain = 0
KDO1 181656Z 14003KT 07/05 A297 RMK A01 T00650051  RH  091%=      5-min Rain = 0
KDO1 181657Z 16004KT 07/05 A297 RMK A01 T00650050  RH  090%=      5-min Rain = 0
KDO1 181658Z 16005KT 07/05 A297 RMK A01 T00650050  RH  090%=      5-min Rain = 0
KDO1 181659Z 16006KT 07/05 A297 RMK A01 T00660050  RH  089%=      5-min Rain = 0
KDO1 181700Z 15005KT 07/05 A2969 RMK A01 T00660050  RH  089%=      5-min Rain = 0
KDO1 181701Z 14003KT 07/05 A2969 RMK A01 T00670050  RH  089%=      5-min Rain = 0
KDO1 181702Z 14003KT 07/05 A2969 RMK A01 T00680053  RH  090%=      5-min Rain = 0
KDO1 181703Z 14003KT 07/05 A2969 RMK A01 T00700053  RH  089%=      5-min Rain = 0
KDO1 181704Z 15003KT 07/05 A2969 RMK A01 T00710051  RH  087%=      5-min Rain = 0
KDO1 181705Z 16003KT 07/05 A2969 RMK A01 T00710051  RH  087%=      5-min Rain = 0
KDO1 181706Z 14005KT 07/05 A2969 RMK A01 T00730051  RH  086%=      5-min Rain = 0
KDO1 181707Z 15005KT 08/05 A2968 RMK A01 T00750051  RH  085%=      5-min Rain = 0
KDO1 181708Z 12004KT 08/05 A2969 RMK A01 T00770052  RH  084%=      5-min Rain = 0
KDO1 181709Z 13004KT 08/05 A2969 RMK A01 T00790053  RH  084%=      5-min Rain = 0
KDO1 181710Z 15005KT 08/05 A2969 RMK A01 T00810051  RH  082%=      5-min Rain = 0
KDO1 181711Z 14005KT 08/05 A2968 RMK A01 T00810048  RH  080%=      5-min Rain = 0
KDO1 181712Z 14004KT 08/05 A2969 RMK A01 T00810048  RH  080%=      5-min Rain = 0
KDO1 181713Z 14005KT 08/05 A2969 RMK A01 T00820049  RH  080%=      5-min Rain = 0
KDO1 181714Z 15003KT 08/05 A2968 RMK A01 T00830047  RH  078%=      5-min Rain = 0
KDO1 181715Z 15004KT 08/05 A2968 RMK A01 T00830046  RH  077%=      5-min Rain = 0
KDO1 181716Z 15003KT 08/05 A2968 RMK A01 T00840047  RH  078%=      5-min Rain = 0
KDO1 181717Z 13003KT 09/05 A2968 RMK A01 T00860050  RH  078%=      5-min Rain = 0
KDO1 181718Z 13004KT 09/05 A2968 RMK A01 T00870050  RH  078%=      5-min Rain = 0
KDO1 181719Z 13005KT 09/05 A2968 RMK A01 T00880050  RH  077%=      5-min Rain = 0
KDO1 181720Z 14005KT 09/05 A2968 RMK A01 T00880049  RH  076%=      5-min Rain = 0
KDO1 181721Z 14005KT 09/05 A2967 RMK A01 T00880049  RH  076%=      5-min Rain = 0
KDO1 181722Z 14003KT 09/05 A2968 RMK A01 T00880049  RH  076%=      5-min Rain = 0
KDO1 181723Z 16004KT 09/05 A2968 RMK A01 T00900051  RH  077%=      5-min Rain = 0
KDO1 181724Z 15003KT 09/05 A2968 RMK A01 T00920050  RH  075%=      5-min Rain = 0
KDO1 181725Z 14001KT 09/05 A2968 RMK A01 T00930050  RH  075%=      5-min Rain = 0
KDO1 181726Z 15002KT 10/05 A2968 RMK A01 T00950054  RH  076%=      5-min Rain = 0
KDO1 181727Z 13002KT 10/05 A2968 RMK A01 T00970051  RH  073%=      5-min Rain = 0
KDO1 181728Z 14002KT 10/05 A2968 RMK A01 T00980052  RH  073%=      5-min Rain = 0
KDO1 181729Z 10003KT 10/05 A2968 RMK A01 T00980052  RH  073%=      5-min Rain = 0
KDO1 181730Z 10004KT 10/06 A2968 RMK A01 T01000056  RH  074%=      5-min Rain = 0
KDO1 181731Z 09003KT 10/05 A2968 RMK A01 T01020054  RH  072%=      5-min Rain = 0
KDO1 181732Z 17003KT 10/06 A2968 RMK A01 T01020055  RH  072%=      5-min Rain = 0
KDO1 181733Z 16004KT 10/05 A2968 RMK A01 T01040052  RH  070%=      5-min Rain = 0
KDO1 181734Z 15005KT 10/05 A2967 RMK A01 T01040053  RH  071%=      5-min Rain = 0
KDO1 181735Z 15005KT 10/05 A2967 RMK A01 T01040051  RH  070%=      5-min Rain = 0
KDO1 181736Z 14003KT 10/05 A2967 RMK A01 T01030050  RH  070%=      5-min Rain = 0
KDO1 181737Z 12005KT 10/05 A2967 RMK A01 T01020051  RH  070%=      5-min Rain = 0
KDO1 181738Z 14004KT 10/05 A2967 RMK A01 T01030053  RH  071%=      5-min Rain = 0
KDO1 181739Z 14005KT 11/06 A2967 RMK A01 T01060056  RH  071%=      5-min Rain = 0
KDO1 181740Z 13003KT 11/06 A2967 RMK A01 T01080055  RH  070%=      5-min Rain = 0
KDO1 181741Z 13004KT 11/05 A2967 RMK A01 T01100054  RH  069%=      5-min Rain = 0
KDO1 181742Z 14006KT 11/06 A2967 RMK A01 T01110055  RH  069%=      5-min Rain = 0
KDO1 181743Z 13006KT 11/06 A2967 RMK A01 T01120055  RH  068%=      5-min Rain = 0
KDO1 181744Z 14005KT 11/05 A2967 RMK A01 T01120054  RH  067%=      5-min Rain = 0
KDO1 181745Z 14005KT 11/05 A2967 RMK A01 T01130053  RH  067%=      5-min Rain = 0
KDO1 181746Z 16003KT 11/05 A2966 RMK A01 T01120052  RH  066%=      5-min Rain = 0
KDO1 181747Z 13004KT 11/05 A2966 RMK A01 T01120052  RH  067%=      5-min Rain = 0
KDO1 181748Z 13006KT 11/05 A2966 RMK A01 T01120053  RH  067%=      5-min Rain = 0
KDO1 181749Z 13005KT 11/05 A2966 RMK A01 T01120053  RH  067%=      5-min Rain = 0
KDO1 181750Z 16003KT 11/06 A2966 RMK A01 T01130055  RH  067%=      5-min Rain = 0
KDO1 181751Z 15004KT 12/05 A2966 RMK A01 T01150054  RH  067%=      5-min Rain = 0
KDO1 181752Z 16004KT 12/06 A2966 RMK A01 T01160055  RH  066%=      5-min Rain = 0
KDO1 181753Z 15005KT 12/05 A2966 RMK A01 T01160054  RH  065%=      5-min Rain = 0
KDO1 181754Z 16005KT 12/05 A2966 RMK A01 T01170053  RH  065%=      5-min Rain = 0
KDO1 181755Z 15004KT 12/05 A2966 RMK A01 T01160054  RH  066%=      5-min Rain = 0
KDO1 181756Z 13004KT 12/05 A2966 RMK A01 T01160053  RH  065%=      5-min Rain = 0
KDO1 181757Z 14004KT 12/05 A2966 RMK A01 T01170054  RH  065%=      5-min Rain = 0
KDO1 181758Z 16003KT 12/05 A2966 RMK A01 T01180054  RH  065%=      5-min Rain = 0
KDO1 181759Z 18003KT 12/06 A2966 RMK A01 T01190056  RH  065%=      5-min Rain = 0
KDO1 181800Z 19003KT 12/05 A2966 RMK A01 T01200053  RH  063%=      5-min Rain = 0
KDO1 181801Z 17004KT 12/05 A2966 RMK A01 T01200054  RH  064%=      5-min Rain = 0
KDO1 181802Z 13004KT 12/06 A2966 RMK A01 T01210055  RH  064%=      5-min Rain = 0
KDO1 181803Z 13005KT 12/06 A2965 RMK A01 T01230055  RH  063%=      5-min Rain = 0
KDO1 181804Z 15004KT 12/06 A2965 RMK A01 T01230055  RH  063%=      5-min Rain = 0
KDO1 181805Z 15003KT 12/06 A2965 RMK A01 T01240055  RH  063%=      5-min Rain = 0
KDO1 181806Z 13003KT 12/06 A2965 RMK A01 T01240055  RH  063%=      5-min Rain = 0
KDO1 181807Z 12003KT 12/06 A2965 RMK A01 T01240055  RH  063%=      5-min Rain = 0
KDO1 181808Z 11003KT 13/06 A2965 RMK A01 T01250056  RH  063%=      5-min Rain = 0
KDO1 181809Z 08003KT 13/05 A2964 RMK A01 T01250054  RH  062%=      5-min Rain = 0
KDO1 181810Z 08003KT 13/06 A2964 RMK A01 T01250055  RH  062%=      5-min Rain = 0
KDO1 181811Z 06003KT 13/06 A2964 RMK A01 T01260055  RH  062%=      5-min Rain = 0
KDO1 181812Z 08004KT 13/06 A2964 RMK A01 T01270056  RH  062%=      5-min Rain = 0
KDO1 181813Z 07004KT 13/05 A2964 RMK A01 T01270054  RH  061%=      5-min Rain = 0
KDO1 181814Z 07005KT 13/05 A2964 RMK A01 T01270054  RH  061%=      5-min Rain = 0
KDO1 181815Z 08004KT 13/06 A2964 RMK A01 T01280055  RH  061%=      5-min Rain = 0
KDO1 181816Z 09004KT 13/06 A2964 RMK A01 T01290055  RH  061%=      5-min Rain = 0
KDO1 181817Z 09005KT 13/06 A2964 RMK A01 T01300056  RH  061%=      5-min Rain = 0
KDO1 181818Z 08004KT 13/06 A2964 RMK A01 T01310055  RH  060%=      5-min Rain = 0
KDO1 181819Z 08005KT 13/06 A2964 RMK A01 T01310055  RH  060%=      5-min Rain = 0
KDO1 181820Z 07005KT 13/06 A2964 RMK A01 T01320056  RH  060%=      5-min Rain = 0
KDO1 181821Z 06007KT 13/06 A2964 RMK A01 T01330056  RH  060%=      5-min Rain = 0
KDO1 181822Z 06005KT 13/06 A2964 RMK A01 T01330055  RH  059%=      5-min Rain = 0
KDO1 181823Z 06006KT 13/06 A2964 RMK A01 T01320056  RH  060%=      5-min Rain = 0
KDO1 181824Z 07006KT 13/06 A2964 RMK A01 T01320055  RH  060%=      5-min Rain = 0
KDO1 181825Z 08005KT 13/06 A2964 RMK A01 T01320055  RH  060%=      5-min Rain = 0
KDO1 181826Z 07006KT 13/06 A2963 RMK A01 T01310055  RH  060%=      5-min Rain = 0
KDO1 181827Z 07006KT 13/06 A2964 RMK A01 T01320055  RH  059%=      5-min Rain = 0
KDO1 181828Z 07006KT 13/06 A2963 RMK A01 T01320055  RH  059%=      5-min Rain = 0
KDO1 181829Z 07005KT 13/06 A2963 RMK A01 T01320055  RH  059%=      5-min Rain = 0
KDO1 181830Z 06005KT 13/06 A2963 RMK A01 T01320055  RH  060%=      5-min Rain = 0
KDO1 181831Z 09004KT 13/06 A2963 RMK A01 T01330056  RH  059%=      5-min Rain = 0
KDO1 181832Z 08005KT 13/06 A2963 RMK A01 T01340055  RH  059%=      5-min Rain = 0
KDO1 181833Z 35002KT 13/06 A2963 RMK A01 T01340055  RH  059%=      5-min Rain = 0
KDO1 181834Z 05002KT 14/06 A2963 RMK A01 T01360056  RH  058%=      5-min Rain = 0
KDO1 181835Z 06004KT 14/06 A2963 RMK A01 T01380057  RH  058%=      5-min Rain = 0
KDO1 181836Z 05004KT 14/06 A2963 RMK A01 T01390057  RH  058%=      5-min Rain = 0
KDO1 181837Z 03005KT 14/06 A2963 RMK A01 T01390055  RH  057%=      5-min Rain = 0
KDO1 181838Z 32003KT 14/05 A2963 RMK A01 T01400052  RH  055%=      5-min Rain = 0
KDO1 181839Z 34005KT 14/05 A2962 RMK A01 T01440050  RH  053%=      5-min Rain = 0
KDO1 181840Z 31004KT 15/05 A2962 RMK A01 T01480050  RH  052%=      5-min Rain = 0
KDO1 181841Z 27002KT 15/05 A2962 RMK A01 T01520050  RH  050%=      5-min Rain = 0
KDO1 181842Z 33003KT 16/05 A2962 RMK A01 T01550053  RH  050%=      5-min Rain = 0
KDO1 181843Z 32004KT 16/05 A2962 RMK A01 T01550054  RH  051%=      5-min Rain = 0
KDO1 181844Z 28003KT 16/05 A2962 RMK A01 T01550052  RH  050%=      5-min Rain = 0
KDO1 181845Z 23002KT 16/05 A2961 RMK A01 T01550050  RH  049%=      5-min Rain = 0
KDO1 181846Z 01006KT 16/05 A2961 RMK A01 T01570052  RH  050%=      5-min Rain = 0
KDO1 181847Z 04004KT 16/05 A2961 RMK A01 T01570053  RH  050%=      5-min Rain = 0
KDO1 181848Z 03002KT 16/06 A2961 RMK A01 T01560055  RH  051%=      5-min Rain = 0
KDO1 181849Z 28002KT 16/06 A2961 RMK A01 T01560055  RH  051%=      5-min Rain = 0
KDO1 181850Z 26006KT 16/05 A2961 RMK A01 T01570049  RH  049%=      5-min Rain = 0
KDO1 181851Z 27011KT 17/05 A2961 RMK A01 T01680047  RH  044%=      5-min Rain = 0
KDO1 181852Z 27011KT 18/05 A296 RMK A01 T01790045  RH  041%=      5-min Rain = 0
KDO1 181853Z 25014KT 18/04 A296 RMK A01 T01840043  RH  039%=      5-min Rain = 0
KDO1 181854Z 26013G18KT 19/04 A296 RMK A01 T01880043  RH  038%=      5-min Rain = 0
KDO1 181855Z 25010KT 19/04 A296 RMK A01 T01890044  RH  038%=      5-min Rain = 0
KDO1 181856Z 24011KT 19/05 A296 RMK A01 T01900045  RH  038%=      5-min Rain = 0
KDO1 181857Z 25013KT 19/04 A296 RMK A01 T01920044  RH  038%=      5-min Rain = 0
KDO1 181858Z 25011KT 19/04 A2959 RMK A01 T01920043  RH  037%=      5-min Rain = 0
KDO1 181859Z 26011KT 19/04 A2959 RMK A01 T01920042  RH  037%=      5-min Rain = 0
KDO1 181900Z 25008KT 19/04 A2959 RMK A01 T01930043  RH  037%=      5-min Rain = 0
KDO1 181901Z 27006KT 19/04 A2959 RMK A01 T01930043  RH  037%=      5-min Rain = 0
KDO1 181902Z 27006KT 19/04 A2959 RMK A01 T01940044  RH  037%=      5-min Rain = 0
KDO1 181903Z 27006G11KT 20/05 A2959 RMK A01 T01950046  RH  037%=      5-min Rain = 0
KDO1 181904Z 26010KT 20/04 A2958 RMK A01 T01950043  RH  037%=      5-min Rain = 0
KDO1 181905Z 26012KT 20/04 A2958 RMK A01 T01970043  RH  036%=      5-min Rain = 0
KDO1 181906Z 25012KT 20/04 A2958 RMK A01 T01980043  RH  036%=      5-min Rain = 0
KDO1 181907Z 26011KT 20/04 A2958 RMK A01 T01990042  RH  035%=      5-min Rain = 0
KDO1 181908Z 26008KT 20/04 A2958 RMK A01 T02000042  RH  035%=      5-min Rain = 0
KDO1 181909Z 25010G15KT 20/04 A2958 RMK A01 T02010044  RH  036%=      5-min Rain = 0
KDO1 181910Z 25012G22KT 20/04 A2958 RMK A01 T02020043  RH  035%=      5-min Rain = 0
KDO1 181911Z 26020G26KT 20/04 A2957 RMK A01 T02030040  RH  034%=      5-min Rain = 0
KDO1 181912Z 27016KT 20/04 A2957 RMK A01 T02030037  RH  033%=      5-min Rain = 0
KDO1 181913Z 25015KT 20/04 A2957 RMK A01 T02040038  RH  034%=      5-min Rain = 0
KDO1 181914Z 25016KT 20/04 A2957 RMK A01 T02040039  RH  034%=      5-min Rain = 0
KDO1 181915Z 25015KT 21/04 A2957 RMK A01 T02050040  RH  034%=      5-min Rain = 0
KDO1 181916Z 26011KT 20/04 A2957 RMK A01 T02040040  RH  034%=      5-min Rain = 0
KDO1 181917Z 26017G27KT 21/04 A2957 RMK A01 T02050038  RH  033%=      5-min Rain = 0
KDO1 181918Z 26022KT 21/03 A2957 RMK A01 T02050033  RH  032%=      5-min Rain = 0
KDO1 181919Z 26018G23KT 21/03 A2957 RMK A01 T02050033  RH  032%=      5-min Rain = 0
KDO1 181920Z 26017G22KT 21/03 A2957 RMK A01 T02050034  RH  032%=      5-min Rain = 0
KDO1 181921Z 26016G21KT 21/03 A2957 RMK A01 T02050034  RH  032%=      5-min Rain = 0
KDO1 181922Z 26016KT 21/03 A2956 RMK A01 T02050034  RH  032%=      5-min Rain = 0
KDO1 181923Z 27018KT 21/03 A2956 RMK A01 T02060034  RH  032%=      5-min Rain = 0
KDO1 181924Z 26016G22KT 21/03 A2956 RMK A01 T02060034  RH  032%=      5-min Rain = 0
KDO1 181925Z 25022KT 21/03 A2956 RMK A01 T02070034  RH  032%=      5-min Rain = 0
KDO1 181926Z 25019G26KT 21/03 A2956 RMK A01 T02080033  RH  031%=      5-min Rain = 0
KDO1 181927Z 26016G23KT 21/03 A2956 RMK A01 T02090034  RH  032%=      5-min Rain = 0
KDO1 181928Z 26014KT 21/03 A2956 RMK A01 T02100034  RH  031%=      5-min Rain = 0
KDO1 181929Z 26016KT 21/03 A2956 RMK A01 T02110031  RH  031%=      5-min Rain = 0
KDO1 181930Z 25015KT 21/03 A2956 RMK A01 T02110029  RH  030%=      5-min Rain = 0
KDO1 181931Z 26017G22KT 21/03 A2956 RMK A01 T02110029  RH  030%=      5-min Rain = 0
KDO1 181932Z 27016KT 21/03 A2956 RMK A01 T02110030  RH  030%=      5-min Rain = 0
KDO1 181933Z 27019G26KT 21/03 A2955 RMK A01 T02110028  RH  030%=      5-min Rain = 0
KDO1 181934Z 28021KT 21/03 A2955 RMK A01 T02120025  RH  029%=      5-min Rain = 0
KDO1 181935Z 27016KT 21/03 A2955 RMK A01 T02120027  RH  029%=      5-min Rain = 0
KDO1 181936Z 26017KT 21/03 A2955 RMK A01 T02130028  RH  030%=      5-min Rain = 0
KDO1 181937Z 26013G19KT 21/03 A2955 RMK A01 T02130029  RH  030%=      5-min Rain = 0
KDO1 181938Z 25017KT 21/03 A2955 RMK A01 T02140031  RH  030%=      5-min Rain = 0
KDO1 181939Z 26016KT 22/03 A2955 RMK A01 T02150032  RH  030%=      5-min Rain = 0
KDO1 181940Z 26019G25KT 22/03 A2955 RMK A01 T02160027  RH  029%=      5-min Rain = 0
KDO1 181941Z 27019G24KT 22/03 A2955 RMK A01 T02160026  RH  028%=      5-min Rain = 0
KDO1 181942Z 26016KT 22/03 A2955 RMK A01 T02160027  RH  029%=      5-min Rain = 0
KDO1 181943Z 27017KT 22/03 A2955 RMK A01 T02160027  RH  029%=      5-min Rain = 0
KDO1 181944Z 28016G21KT 22/03 A2954 RMK A01 T02160026  RH  029%=      5-min Rain = 0
KDO1 181945Z 28020G25KT 22/03 A2954 RMK A01 T02160025  RH  028%=      5-min Rain = 0
KDO1 181946Z 26020G25KT 22/02 A2954 RMK A01 T02160024  RH  028%=      5-min Rain = 0
KDO1 181947Z 26019G24KT 22/02 A2954 RMK A01 T02160022  RH  028%=      5-min Rain = 0
KDO1 181948Z 25016G21KT 22/02 A2954 RMK A01 T02170023  RH  028%=      5-min Rain = 0
KDO1 181949Z 26025G32KT 22/02 A2954 RMK A01 T02190022  RH  027%=      5-min Rain = 0
KDO1 181950Z 27019KT 22/02 A2954 RMK A01 T02190018  RH  027%=      5-min Rain = 0
KDO1 181951Z 27020G25KT 22/02 A2954 RMK A01 T02190019  RH  027%=      5-min Rain = 0
KDO1 181952Z 27018KT 22/02 A2954 RMK A01 T02180020  RH  027%=      5-min Rain = 0
KDO1 181953Z 26018G24KT 22/02 A2954 RMK A01 T02170022  RH  028%=      5-min Rain = 0
KDO1 181954Z 27017KT 22/02 A2954 RMK A01 T02170023  RH  028%=      5-min Rain = 0
KDO1 181955Z 26020G26KT 22/02 A2954 RMK A01 T02170020  RH  027%=      5-min Rain = 0
KDO1 181956Z 27022G29KT 22/02 A2954 RMK A01 T02170019  RH  027%=      5-min Rain = 0
KDO1 181957Z 27021KT 22/02 A2954 RMK A01 T02150018  RH  027%=      5-min Rain = 0
KDO1 181958Z 27021KT 21/02 A2954 RMK A01 T02130015  RH  027%=      5-min Rain = 0
KDO1 181959Z 27016KT 21/01 A2954 RMK A01 T02120014  RH  027%=      5-min Rain = 0
KDO1 182000Z 27018KT 21/01 A2954 RMK A01 T02120014  RH  027%=      5-min Rain = 0
KDO1 182001Z 27016KT 21/02 A2954 RMK A01 T02120015  RH  027%=      5-min Rain = 0
KDO1 182002Z 27017KT 21/02 A2954 RMK A01 T02120016  RH  027%=      5-min Rain = 0
KDO1 182003Z 28016KT 21/02 A2954 RMK A01 T02130018  RH  027%=      5-min Rain = 0
KDO1 182004Z 28019KT 21/02 A2953 RMK A01 T02140020  RH  028%=      5-min Rain = 0
KDO1 182005Z 28017G22KT 21/02 A2954 RMK A01 T02140020  RH  028%=      5-min Rain = 0
KDO1 182006Z 27017G24KT 21/02 A2954 RMK A01 T02140020  RH  028%=      5-min Rain = 0
KDO1 182007Z 27021G26KT 21/02 A2953 RMK A01 T02140020  RH  028%=      5-min Rain = 0
KDO1 182008Z 27016G21KT 21/02 A2953 RMK A01 T02140020  RH  028%=      5-min Rain = 0
KDO1 182009Z 26013G20KT 21/02 A2954 RMK A01 T02140023  RH  028%=      5-min Rain = 0
KDO1 182010Z 26019G24KT 22/02 A2954 RMK A01 T02160022  RH  028%=      5-min Rain = 0
KDO1 182011Z 27018G23KT 22/02 A2954 RMK A01 T02150021  RH  028%=      5-min Rain = 0
KDO1 182012Z 27019G25KT 22/02 A2954 RMK A01 T02150022  RH  028%=      5-min Rain = 0
KDO1 182013Z 27021G26KT 22/02 A2954 RMK A01 T02150019  RH  027%=      5-min Rain = 0
KDO1 182014Z 27022G27KT 22/02 A2954 RMK A01 T02150018  RH  027%=      5-min Rain = 0
KDO1 182015Z 26018KT 21/02 A2954 RMK A01 T02140016  RH  027%=      5-min Rain = 0
KDO1 182016Z 26017KT 21/02 A2954 RMK A01 T02130016  RH  027%=      5-min Rain = 0
KDO1 182017Z 26018G25KT 21/02 A2954 RMK A01 T02140017  RH  027%=      5-min Rain = 0
KDO1 182018Z 26017KT 21/02 A2954 RMK A01 T02140017  RH  027%=      5-min Rain = 0
KDO1 182019Z 27013G20KT 21/02 A2954 RMK A01 T02140017  RH  027%=      5-min Rain = 0
KDO1 182020Z 27019G25KT 21/02 A2954 RMK A01 T02130018  RH  027%=      5-min Rain = 0
KDO1 182021Z 28015KT 21/02 A2954 RMK A01 T02130019  RH  028%=      5-min Rain = 0
KDO1 182022Z 27017KT 21/02 A2954 RMK A01 T02130019  RH  028%=      5-min Rain = 0
KDO1 182023Z 27015KT 21/02 A2954 RMK A01 T02140018  RH  027%=      5-min Rain = 0
KDO1 182024Z 28019KT 21/02 A2954 RMK A01 T02130017  RH  027%=      5-min Rain = 0
KDO1 182025Z 28019KT 21/02 A2954 RMK A01 T02120016  RH  027%=      5-min Rain = 0
KDO1 182026Z 28014KT 21/02 A2954 RMK A01 T02110015  RH  027%=      5-min Rain = 0
KDO1 182027Z 29014G19KT 21/02 A2954 RMK A01 T02110016  RH  027%=      5-min Rain = 0
KDO1 182028Z 29013KT 21/01 A2954 RMK A01 T02100013  RH  027%=      5-min Rain = 0
KDO1 182029Z 29016G22KT 21/01 A2954 RMK A01 T02110014  RH  027%=      5-min Rain = 0
KDO1 182030Z 30017G22KT 21/01 A2953 RMK A01 T02100012  RH  027%=      5-min Rain = 0
KDO1 182031Z 30016G21KT 21/01 A2953 RMK A01 T02090011  RH  027%=      5-min Rain = 0
KDO1 182032Z 30012G18KT 21/01 A2953 RMK A01 T02080010  RH  027%=      5-min Rain = 0
KDO1 182033Z 29012KT 21/01 A2953 RMK A01 T02070010  RH  027%=      5-min Rain = 0
KDO1 182034Z 30012G20KT 21/01 A2954 RMK A01 T02070010  RH  027%=      5-min Rain = 0
KDO1 182035Z 29012KT 21/01 A2953 RMK A01 T02060008  RH  027%=      5-min Rain = 0
KDO1 182036Z 30010KT 21/01 A2953 RMK A01 T02060009  RH  027%=      5-min Rain = 0
KDO1 182037Z 30010G15KT 21/01 A2953 RMK A01 T02050011  RH  027%=      5-min Rain = 0
KDO1 182038Z 29012KT 21/01 A2953 RMK A01 T02060012  RH  027%=      5-min Rain = 0
KDO1 182039Z 29013KT 21/01 A2953 RMK A01 T02050012  RH  028%=      5-min Rain = 0
KDO1 182040Z 30013KT 21/01 A2953 RMK A01 T02050012  RH  028%=      5-min Rain = 0
KDO1 182041Z 29014KT 21/01 A2953 RMK A01 T02050011  RH  027%=      5-min Rain = 0
KDO1 182042Z 30012KT 21/01 A2954 RMK A01 T02050011  RH  027%=      5-min Rain = 0
KDO1 182043Z 30011KT 21/01 A2954 RMK A01 T02050013  RH  028%=      5-min Rain = 0
KDO1 182044Z 30010G16KT 21/01 A2954 RMK A01 T02050014  RH  028%=      5-min Rain = 0
KDO1 182045Z 30012KT 21/01 A2954 RMK A01 T02050014  RH  028%=      5-min Rain = 0
KDO1 182046Z 29010KT 21/01 A2954 RMK A01 T02060014  RH  028%=      5-min Rain = 0
KDO1 182047Z 29010KT 21/01 A2954 RMK A01 T02060014  RH  028%=      5-min Rain = 0
KDO1 182048Z 30009G14KT 21/01 A2954 RMK A01 T02050013  RH  028%=      5-min Rain = 0
KDO1 182049Z 29008KT 21/01 A2954 RMK A01 T02050013  RH  028%=      5-min Rain = 0
KDO1 182050Z 29008G14KT 21/01 A2954 RMK A01 T02050014  RH  028%=      5-min Rain = 0
KDO1 182051Z 30010KT 21/02 A2954 RMK A01 T02050015  RH  028%=      5-min Rain = 0
KDO1 182052Z 29014KT 21/02 A2953 RMK A01 T02050015  RH  028%=      5-min Rain = 0
KDO1 182053Z 29013G18KT 21/01 A2953 RMK A01 T02050013  RH  028%=      5-min Rain = 0
KDO1 182054Z 29013G19KT 21/01 A2954 RMK A01 T02050014  RH  028%=      5-min Rain = 0
KDO1 182055Z 29015KT 21/01 A2953 RMK A01 T02050013  RH  028%=      5-min Rain = 0
KDO1 182056Z 28013KT 21/01 A2954 RMK A01 T02050012  RH  028%=      5-min Rain = 0
KDO1 182057Z 30013KT 20/01 A2954 RMK A01 T02040013  RH  028%=      5-min Rain = 0
KDO1 182058Z 30015KT 20/01 A2954 RMK A01 T02040012  RH  028%=      5-min Rain = 0
KDO1 182059Z 29015KT 20/01 A2954 RMK A01 T02040011  RH  028%=      5-min Rain = 0
KDO1 182100Z 28015KT 21/01 A2954 RMK A01 T02060013  RH  028%=      5-min Rain = 0
KDO1 182101Z 29015KT 21/01 A2954 RMK A01 T02100012  RH  027%=      5-min Rain = 0
KDO1 182102Z 28017KT 21/01 A2954 RMK A01 T02130008  RH  026%=      5-min Rain = 0
KDO1 182103Z 28020G26KT 21/01 A2954 RMK A01 T02140007  RH  025%=      5-min Rain = 0
KDO1 182104Z 28015G22KT 21/01 A2954 RMK A01 T02130012  RH  026%=      5-min Rain = 0
KDO1 182105Z 29009KT 21/02 A2954 RMK A01 T02130016  RH  027%=      5-min Rain = 0
KDO1 182106Z 30011G17KT 22/02 A2954 RMK A01 T02150018  RH  027%=      5-min Rain = 0
KDO1 182107Z 30013KT 22/02 A2954 RMK A01 T02170017  RH  027%=      5-min Rain = 0
KDO1 182108Z 28010G15KT 22/01 A2954 RMK A01 T02150014  RH  026%=      5-min Rain = 0
KDO1 182109Z 29011KT 21/01 A2953 RMK A01 T02120011  RH  026%=      5-min Rain = 0
KDO1 182110Z 28010KT 21/01 A2953 RMK A01 T02100011  RH  027%=      5-min Rain = 0
KDO1 182111Z 29011KT 21/01 A2953 RMK A01 T02080009  RH  027%=      5-min Rain = 0
KDO1 182112Z 29011KT 21/01 A2953 RMK A01 T02060010  RH  027%=      5-min Rain = 0
KDO1 182113Z 29009KT 21/01 A2954 RMK A01 T02050010  RH  027%=      5-min Rain = 0
KDO1 182114Z 30010KT 20/01 A2953 RMK A01 T02040012  RH  028%=      5-min Rain = 0
KDO1 182115Z 30011KT 20/01 A2953 RMK A01 T02030010  RH  028%=      5-min Rain = 0
KDO1 182116Z 31009KT 20/01 A2954 RMK A01 T02020011  RH  028%=      5-min Rain = 0
KDO1 182117Z 30010KT 20/01 A2954 RMK A01 T02010011  RH  028%=      5-min Rain = 0
KDO1 182118Z 30010KT 20/01 A2954 RMK A01 T02010011  RH  028%=      5-min Rain = 0
KDO1 182119Z 31007KT 20/01 A2954 RMK A01 T02010012  RH  028%=      5-min Rain = 0
KDO1 182120Z 31010KT 20/01 A2954 RMK A01 T02000014  RH  029%=      5-min Rain = 0
KDO1 182121Z 31010KT 20/02 A2954 RMK A01 T02000015  RH  029%=      5-min Rain = 0
KDO1 182122Z 31008KT 20/02 A2954 RMK A01 T02000015  RH  029%=      5-min Rain = 0
KDO1 182123Z 31007KT 20/02 A2954 RMK A01 T01990016  RH  029%=      5-min Rain = 0
KDO1 182124Z 31007KT 20/02 A2954 RMK A01 T01990019  RH  030%=      5-min Rain = 0
KDO1 182125Z 31007KT 20/02 A2954 RMK A01 T01990019  RH  030%=      5-min Rain = 0
KDO1 182126Z 31009KT 20/02 A2954 RMK A01 T01990017  RH  030%=      5-min Rain = 0
KDO1 182127Z 29011KT 20/01 A2954 RMK A01 T01990013  RH  029%=      5-min Rain = 0
KDO1 182128Z 28013KT 20/01 A2954 RMK A01 T01990008  RH  028%=      5-min Rain = 0
KDO1 182129Z 28011KT 20/01 A2954 RMK A01 T02000007  RH  027%=      5-min Rain = 0
KDO1 182130Z 28010KT 20/01 A2954 RMK A01 T02000008  RH  028%=      5-min Rain = 0
KDO1 182131Z 28010KT 20/01 A2954 RMK A01 T02000006  RH  027%=      5-min Rain = 0
KDO1 182132Z 29009KT 20/01 A2954 RMK A01 T02000006  RH  027%=      5-min Rain = 0
KDO1 182133Z 28009KT 20/01 A2954 RMK A01 T02000006  RH  027%=      5-min Rain = 0
KDO1 182134Z 28009KT 20/01 A2954 RMK A01 T02000007  RH  027%=      5-min Rain = 0
KDO1 182135Z 28008KT 20/01 A2954 RMK A01 T02000006  RH  027%=      5-min Rain = 0
KDO1 182136Z 28013G18KT 20/01 A2954 RMK A01 T02010005  RH  027%=      5-min Rain = 0
KDO1 182137Z 28013KT 20/00 A2954 RMK A01 T02020003  RH  026%=      5-min Rain = 0
KDO1 182138Z 28015G20KT 20/00 A2954 RMK A01 T02040003  RH  026%=      5-min Rain = 0
KDO1 182139Z 28014KT 21/M00 A2954 RMK A01 T02051002  RH  025%=      5-min Rain = 0
KDO1 182140Z 28015KT 21/M00 A2954 RMK A01 T02051003  RH  025%=      5-min Rain = 0
KDO1 182141Z 28015KT 21/M01 A2954 RMK A01 T02051005  RH  024%=      5-min Rain = 0
KDO1 182142Z 28016KT 21/M00 A2954 RMK A01 T02051004  RH  025%=      5-min Rain = 0
KDO1 182143Z 28013KT 21/M00 A2954 RMK A01 T02051002  RH  025%=      5-min Rain = 0
KDO1 182144Z 29014KT 20/M00 A2954 RMK A01 T02041001  RH  025%=      5-min Rain = 0
KDO1 182145Z 28011KT 20/M00 A2954 RMK A01 T02031003  RH  025%=      5-min Rain = 0
KDO1 182146Z 29012KT 20/M00 A2954 RMK A01 T02031002  RH  025%=      5-min Rain = 0
KDO1 182147Z 28013KT 20/M01 A2954 RMK A01 T02021005  RH  025%=      5-min Rain = 0
KDO1 182148Z 28013KT 20/M01 A2954 RMK A01 T02021008  RH  024%=      5-min Rain = 0
KDO1 182149Z 30013KT 20/M01 A2954 RMK A01 T02021010  RH  024%=      5-min Rain = 0
KDO1 182150Z 29011KT 20/M01 A2954 RMK A01 T02021009  RH  024%=      5-min Rain = 0
KDO1 182151Z 29014KT 20/M01 A2954 RMK A01 T02021011  RH  024%=      5-min Rain = 0
KDO1 182152Z 29012KT 20/M02 A2954 RMK A01 T02021015  RH  023%=      5-min Rain = 0
KDO1 182153Z 29011KT 20/M01 A2955 RMK A01 T02021014  RH  023%=      5-min Rain = 0
KDO1 182154Z 29010KT 20/M01 A2955 RMK A01 T02011014  RH  023%=      5-min Rain = 0
KDO1 182155Z 29009KT 20/M01 A2955 RMK A01 T02011014  RH  023%=      5-min Rain = 0
KDO1 182156Z 30010KT 20/M01 A2955 RMK A01 T02011012  RH  024%=      5-min Rain = 0
KDO1 182157Z 30009KT 20/M01 A2955 RMK A01 T02011012  RH  024%=      5-min Rain = 0
KDO1 182158Z 30010G15KT 20/M01 A2955 RMK A01 T02011012  RH  024%=      5-min Rain = 0
KDO1 182159Z 30011KT 20/M01 A2955 RMK A01 T02011013  RH  024%=      5-min Rain = 0
KDO1 182200Z 29009KT 20/M01 A2955 RMK A01 T02011013  RH  024%=      5-min Rain = 0
KDO1 182201Z 30010KT 20/M01 A2955 RMK A01 T02011011  RH  024%=      5-min Rain = 0
KDO1 182202Z 30011KT 20/M01 A2955 RMK A01 T02011012  RH  024%=      5-min Rain = 0
KDO1 182203Z 29009G14KT 20/M01 A2955 RMK A01 T02001011  RH  024%=      5-min Rain = 0
KDO1 182204Z 29010G16KT 20/M01 A2955 RMK A01 T02001011  RH  024%=      5-min Rain = 0
KDO1 182205Z 29011KT 20/M01 A2955 RMK A01 T02001011  RH  024%=      5-min Rain = 0
KDO1 182206Z 29009KT 20/M01 A2955 RMK A01 T01991011  RH  024%=      5-min Rain = 0
KDO1 182207Z 30009KT 20/M01 A2955 RMK A01 T01991011  RH  024%=      5-min Rain = 0
KDO1 182208Z 29010KT 20/M01 A2955 RMK A01 T01991010  RH  024%=      5-min Rain = 0
KDO1 182209Z 29011KT 20/M01 A2955 RMK A01 T01991011  RH  024%=      5-min Rain = 0
KDO1 182210Z 30011KT 20/M01 A2955 RMK A01 T01991013  RH  024%=      5-min Rain = 0
KDO1 182211Z 29010KT 20/M02 A2955 RMK A01 T01991015  RH  024%=      5-min Rain = 0
KDO1 182212Z 28009KT 20/M01 A2955 RMK A01 T01991013  RH  024%=      5-min Rain = 0
KDO1 182213Z 29011KT 20/M01 A2955 RMK A01 T01991014  RH  024%=      5-min Rain = 0
KDO1 182214Z 28012G17KT 20/M02 A2955 RMK A01 T01991015  RH  024%=      5-min Rain = 0
KDO1 182215Z 29012KT 20/M02 A2955 RMK A01 T01991017  RH  023%=      5-min Rain = 0
KDO1 182216Z 29011KT 20/M02 A2955 RMK A01 T01991018  RH  023%=      5-min Rain = 0
KDO1 182217Z 30010KT 20/M02 A2955 RMK A01 T01991017  RH  023%=      5-min Rain = 0
KDO1 182218Z 30012G18KT 20/M02 A2955 RMK A01 T02001017  RH  023%=      5-min Rain = 0
KDO1 182219Z 30009KT 20/M02 A2955 RMK A01 T02001015  RH  023%=      5-min Rain = 0
KDO1 182220Z 30009KT 20/M01 A2955 RMK A01 T02011012  RH  024%=      5-min Rain = 0
KDO1 182221Z 30010G17KT 20/M01 A2955 RMK A01 T02011012  RH  024%=      5-min Rain = 0
KDO1 182222Z 30010G15KT 20/M01 A2955 RMK A01 T02011013  RH  024%=      5-min Rain = 0
KDO1 182223Z 30012G17KT 20/M01 A2955 RMK A01 T02001012  RH  024%=      5-min Rain = 0
KDO1 182224Z 30012KT 20/M01 A2955 RMK A01 T01991014  RH  024%=      5-min Rain = 0
KDO1 182225Z 30011KT 20/M01 A2956 RMK A01 T01991013  RH  024%=      5-min Rain = 0
KDO1 182226Z 31011KT 20/M01 A2956 RMK A01 T01981014  RH  024%=      5-min Rain = 0
KDO1 182227Z 32012KT 20/M01 A2956 RMK A01 T01971014  RH  024%=      5-min Rain = 0
KDO1 182228Z 30009KT 20/M01 A2956 RMK A01 T01961013  RH  024%=      5-min Rain = 0
KDO1 182229Z 30010KT 20/M01 A2956 RMK A01 T01961012  RH  025%=      5-min Rain = 0
KDO1 182230Z 31009KT 20/M01 A2956 RMK A01 T01951012  RH  025%=      5-min Rain = 0
KDO1 182231Z 31007KT 20/M01 A2956 RMK A01 T01951011  RH  025%=      5-min Rain = 0
KDO1 182232Z 30007KT 19/M01 A2956 RMK A01 T01941010  RH  025%=      5-min Rain = 0
KDO1 182233Z 30009KT 19/M01 A2956 RMK A01 T01931010  RH  025%=      5-min Rain = 0
KDO1 182234Z 30007KT 19/M01 A2956 RMK A01 T01931011  RH  025%=      5-min Rain = 0
KDO1 182235Z 31008KT 19/M01 A2956 RMK A01 T01921011  RH  025%=      5-min Rain = 0
KDO1 182236Z 30008KT 19/M01 A2956 RMK A01 T01921010  RH  025%=      5-min Rain = 0
KDO1 182237Z 31007KT 19/M01 A2956 RMK A01 T01921009  RH  026%=      5-min Rain = 0
KDO1 182238Z 31008KT 19/M01 A2956 RMK A01 T01921009  RH  026%=      5-min Rain = 0
KDO1 182239Z 31008KT 19/M01 A2957 RMK A01 T01911008  RH  026%=      5-min Rain = 0
KDO1 182240Z 31008KT 19/M01 A2957 RMK A01 T01911008  RH  026%=      5-min Rain = 0
KDO1 182241Z 31008KT 19/M01 A2957 RMK A01 T01911008  RH  026%=      5-min Rain = 0
KDO1 182242Z 31009KT 19/M01 A2957 RMK A01 T01901007  RH  026%=      5-min Rain = 0
KDO1 182243Z 32010KT 19/M01 A2957 RMK A01 T01901006  RH  027%=      5-min Rain = 0
KDO1 182244Z 33010KT 19/M01 A2958 RMK A01 T01891005  RH  027%=      5-min Rain = 0
KDO1 182245Z 34021G31KT 19/00 A2959 RMK A01 T01880001  RH  029%=      5-min Rain = 0
KDO1 182246Z 35022G27KT 17/01 A2959 RMK A01 T01730012  RH  034%=      5-min Rain = 0
KDO1 182247Z 36023KT 15/01 A2959 RMK A01 T01540012  RH  038%=      5-min Rain = 0
KDO1 182248Z 00022G29KT 14/01 A2959 RMK A01 T01430013  RH  041%=      5-min Rain = 0
KDO1 182249Z 00019G27KT 14/01 A2959 RMK A01 T01360014  RH  043%=      5-min Rain = 0
KDO1 182250Z 00020G27KT 13/02 A296 RMK A01 T01330015  RH  045%=      5-min Rain = 0
KDO1 182251Z 36024G30KT 13/02 A296 RMK A01 T01310016  RH  046%=      5-min Rain = 0
KDO1 182252Z 00022G29KT 13/02 A296 RMK A01 T01290016  RH  046%=      5-min Rain = 0
KDO1 182253Z 00025G31KT 13/02 A296 RMK A01 T01270016  RH  047%=      5-min Rain = 0
KDO1 182254Z 00027G36KT 13/02 A296 RMK A01 T01250017  RH  048%=      5-min Rain = 0
KDO1 182255Z 36025G33KT 12/02 A296 RMK A01 T01230017  RH  048%=      5-min Rain = 0
KDO1 182256Z 35022G29KT 12/02 A296 RMK A01 T01220018  RH  049%=      5-min Rain = 0
KDO1 182257Z 35026G31KT 12/02 A296 RMK A01 T01210018  RH  049%=      5-min Rain = 0
KDO1 182258Z 35020G27KT 12/02 A296 RMK A01 T01190019  RH  050%=      5-min Rain = 0
KDO1 182259Z 36024G29KT 12/02 A296 RMK A01 T01180019  RH  051%=      5-min Rain = 0
KDO1 182300Z 00025G31KT 12/02 A296 RMK A01 T01170019  RH  051%=      5-min Rain = 0
KDO1 182301Z 00022G30KT 12/02 A2961 RMK A01 T01150019  RH  052%=      5-min Rain = 0
KDO1 182302Z 35020G29KT 11/02 A2961 RMK A01 T01130019  RH  052%=      5-min Rain = 0
KDO1 182303Z 35024G31KT 11/02 A2961 RMK A01 T01120020  RH  053%=      5-min Rain = 0
KDO1 182304Z 35026G31KT 11/02 A2961 RMK A01 T01100019  RH  053%=      5-min Rain = 0
KDO1 182305Z 35022G29KT 11/02 A2962 RMK A01 T01080019  RH  054%=      5-min Rain = 0
KDO1 182306Z 35022KT 11/02 A2962 RMK A01 T01060019  RH  055%=      5-min Rain = 0
KDO1 182307Z 35023G31KT 11/02 A2962 RMK A01 T01050019  RH  055%=      5-min Rain = 0
KDO1 182308Z 35026KT 10/02 A2962 RMK A01 T01040018  RH  055%=      5-min Rain = 0
KDO1 182309Z 35022G27KT 10/02 A2962 RMK A01 T01020018  RH  056%=      5-min Rain = 0
KDO1 182310Z 35025KT 10/02 A2962 RMK A01 T01010018  RH  056%=      5-min Rain = 0
KDO1 182311Z 35024G29KT 10/02 A2963 RMK A01 T00990017  RH  057%=      5-min Rain = 0
KDO1 182312Z 36022G30KT 10/02 A2962 RMK A01 T00980017  RH  057%=      5-min Rain = 0
KDO1 182313Z 36023G28KT 10/02 A2963 RMK A01 T00960016  RH  058%=      5-min Rain = 0
KDO1 182314Z 35021G26KT 10/02 A2963 RMK A01 T00950016  RH  058%=      5-min Rain = 0
KDO1 182315Z 36023G31KT 09/02 A2962 RMK A01 T00930016  RH  058%=      5-min Rain = 0
KDO1 182316Z 00019G28KT 09/02 A2962 RMK A01 T00920016  RH  059%=      5-min Rain = 0
KDO1 182317Z 00020G26KT 09/02 A2962 RMK A01 T00910015  RH  059%=      5-min Rain = 0
KDO1 182318Z 00020G25KT 09/02 A2962 RMK A01 T00900016  RH  060%=      5-min Rain = 0
KDO1 182319Z 35021G27KT 09/02 A2963 RMK A01 T00890016  RH  060%=      5-min Rain = 0
KDO1 182320Z 36021KT 09/02 A2963 RMK A01 T00880016  RH  060%=      5-min Rain = 0
KDO1 182321Z 36024G31KT 09/02 A2963 RMK A01 T00870016  RH  061%=      5-min Rain = 0
KDO1 182322Z 36019G26KT 09/02 A2963 RMK A01 T00870016  RH  061%=      5-min Rain = 0
KDO1 182323Z 00024G31KT 09/02 A2963 RMK A01 T00860016  RH  061%=      5-min Rain = 0
KDO1 182324Z 36022G29KT 09/02 A2964 RMK A01 T00850016  RH  062%=      5-min Rain = 0
KDO1 182325Z 35019G25KT 08/02 A2964 RMK A01 T00840016  RH  062%=      5-min Rain = 0
KDO1 182326Z 36019G25KT 08/02 A2964 RMK A01 T00830016  RH  062%=      5-min Rain = 0
KDO1 182327Z 36016G21KT 08/02 A2964 RMK A01 T00820015  RH  063%=      5-min Rain = 0
KDO1 182328Z 36023G28KT 08/02 A2965 RMK A01 T00810015  RH  063%=      5-min Rain = 0
KDO1 182329Z 35025G32KT 08/01 A2965 RMK A01 T00800014  RH  063%=      5-min Rain = 0
KDO1 182330Z 35025G32KT 08/01 A2965 RMK A01 T00780012  RH  063%=      5-min Rain = 0
KDO1 182331Z 35026G31KT 08/01 A2965 RMK A01 T00760010  RH  063%=      5-min Rain = 0
KDO1 182332Z 35027G32KT 07/01 A2965 RMK A01 T00740010  RH  064%=      5-min Rain = 0
KDO1 182333Z 35021G28KT 07/01 A2965 RMK A01 T00730010  RH  065%=      5-min Rain = 0
KDO1 182334Z 35022G30KT 07/01 A2965 RMK A01 T00710010  RH  065%=      5-min Rain = 0
KDO1 182335Z 36021G30KT 07/01 A2965 RMK A01 T00700010  RH  066%=      5-min Rain = 0
KDO1 182336Z 35018KT 07/01 A2965 RMK A01 T00690010  RH  066%=      5-min Rain = 0
KDO1 182337Z 35023G30KT 07/01 A2965 RMK A01 T00680010  RH  067%=      5-min Rain = 0
KDO1 182338Z 35021G27KT 07/01 A2965 RMK A01 T00670010  RH  067%=      5-min Rain = 0
KDO1 182339Z 36020G27KT 07/01 A2965 RMK A01 T00660010  RH  068%=      5-min Rain = 0
KDO1 182340Z 35022G30KT 07/01 A2965 RMK A01 T00650011  RH  068%=      5-min Rain = 0
KDO1 182341Z 35026G31KT 06/01 A2965 RMK A01 T00640010  RH  069%=      5-min Rain = 0
KDO1 182342Z 34026KT 06/01 A2965 RMK A01 T00640011  RH  069%=      5-min Rain = 0
KDO1 182343Z 35020G25KT 06/01 A2965 RMK A01 T00630011  RH  069%=      5-min Rain = 0
KDO1 182344Z 35024G32KT 06/01 A2966 RMK A01 T00630011  RH  069%=      5-min Rain = 0
KDO1 182345Z 35022G32KT 06/01 A2966 RMK A01 T00620011  RH  070%=      5-min Rain = 0
KDO1 182346Z 35024G32KT 06/01 A2966 RMK A01 T00610011  RH  070%=      5-min Rain = 0
KDO1 182347Z 35024G30KT 06/01 A2966 RMK A01 T00600011  RH  071%=      5-min Rain = 0
KDO1 182348Z 35025G31KT 06/01 A2966 RMK A01 T00590011  RH  071%=      5-min Rain = 0
KDO1 182349Z 34021G28KT 06/01 A2966 RMK A01 T00590011  RH  071%=      5-min Rain = 0
KDO1 182350Z 34023G29KT 06/01 A2967 RMK A01 T00590011  RH  072%=      5-min Rain = 0
KDO1 182351Z 35024G30KT 06/01 A2967 RMK A01 T00580012  RH  072%=      5-min Rain = 0
KDO1 182352Z 34024G32KT 06/01 A2967 RMK A01 T00580012  RH  072%=      5-min Rain = 0
KDO1 182353Z 35021G27KT 06/01 A2967 RMK A01 T00580012  RH  072%=      5-min Rain = 0
KDO1 182354Z 34022G28KT 06/01 A2967 RMK A01 T00570012  RH  073%=      5-min Rain = 0
KDO1 182355Z 35025G31KT 06/01 A2967 RMK A01 T00570012  RH  073%=      5-min Rain = 0
KDO1 182356Z 35022G28KT 06/01 A2967 RMK A01 T00560012  RH  073%=      5-min Rain = 0
KDO1 182357Z 35023G30KT 06/01 A2967 RMK A01 T00560012  RH  074%=      5-min Rain = 0
KDO1 182358Z 35021G29KT 06/01 A2967 RMK A01 T00550012  RH  074%=      5-min Rain = 0
KDO1 182359Z 34021G27KT 06/01 A2967 RMK A01 T00550012  RH  074%=      5-min Rain = 0
KDO1 190000Z 34022G28KT 06/01 A2967 RMK A01 T00550013  RH  074%=      5-min Rain = 0
KDO1 190001Z 35018G24KT 06/01 A2967 RMK A01 T00550013  RH  074%=      5-min Rain = 0
KDO1 190002Z 34023G28KT 05/01 A2967 RMK A01 T00540013  RH  075%=      5-min Rain = 0
KDO1 190003Z 35020G32KT 06/01 A2967 RMK A01 T00550013  RH  075%=      5-min Rain = 0
KDO1 190004Z 35029G36KT 05/01 A2967 RMK A01 T00540013  RH  075%=      5-min Rain = 0
KDO1 190005Z 35027G35KT 05/01 A2968 RMK A01 T00540014  RH  075%=      5-min Rain = 0
KDO1 190006Z 34024G32KT 06/01 A2968 RMK A01 T00550014  RH  075%=      5-min Rain = 0
KDO1 190007Z 34018KT 05/01 A2968 RMK A01 T00540014  RH  075%=      5-min Rain = 0
KDO1 190008Z 34018G23KT 05/01 A2968 RMK A01 T00540014  RH  075%=      5-min Rain = 0
KDO1 190009Z 34021G27KT 05/01 A2968 RMK A01 T00540014  RH  076%=      5-min Rain = 0
KDO1 190010Z 33024KT 05/01 A2968 RMK A01 T00530014  RH  076%=      5-min Rain = 0
KDO1 190011Z 34023G30KT 05/01 A2968 RMK A01 T00530014  RH  076%=      5-min Rain = 0
KDO1 190012Z 34022G29KT 05/01 A2968 RMK A01 T00530014  RH  076%=      5-min Rain = 0
KDO1 190013Z 33025KT 05/02 A2968 RMK A01 T00530015  RH  076%=      5-min Rain = 0
KDO1 190014Z 34022G27KT 05/02 A2968 RMK A01 T00530015  RH  076%=      5-min Rain = 0
KDO1 190015Z 34019G30KT 05/02 A2969 RMK A01 T00530015  RH  077%=      5-min Rain = 0
KDO1 190016Z 33020G25KT 05/02 A2969 RMK A01 T00530015  RH  077%=      5-min Rain = 0
KDO1 190017Z 34022G30KT 05/02 A2969 RMK A01 T00530016  RH  077%=      5-min Rain = 0
KDO1 190018Z 34019G24KT 05/02 A2969 RMK A01 T00530016  RH  077%=      5-min Rain = 0
KDO1 190019Z 33024G33KT 05/02 A2969 RMK A01 T00530016  RH  077%=      5-min Rain = 0
KDO1 190020Z 34025KT 05/02 A2969 RMK A01 T00520016  RH  078%=      5-min Rain = 0
KDO1 190021Z 34024G31KT 05/02 A2969 RMK A01 T00520017  RH  078%=      5-min Rain = 0
KDO1 190022Z 34024G29KT 05/02 A2969 RMK A01 T00520017  RH  078%=      5-min Rain = 0
KDO1 190023Z 34023G28KT 05/02 A297 RMK A01 T00520017  RH  078%=      5-min Rain = 0
KDO1 190024Z 34023KT 05/02 A297 RMK A01 T00520017  RH  078%=      5-min Rain = 0
KDO1 190025Z 34022G29KT 05/02 A297 RMK A01 T00520017  RH  078%=      5-min Rain = 0
KDO1 190026Z 34020G27KT 05/02 A297 RMK A01 T00520018  RH  078%=      5-min Rain = 0
KDO1 190027Z 33022G29KT 05/02 A297 RMK A01 T00520018  RH  078%=      5-min Rain = 0
KDO1 190028Z 34020G27KT 05/02 A297 RMK A01 T00520018  RH  079%=      5-min Rain = 0
KDO1 190029Z 34021KT 05/02 A2969 RMK A01 T00520018  RH  079%=      5-min Rain = 0
KDO1 190030Z 34023G28KT 05/02 A2969 RMK A01 T00520018  RH  079%=      5-min Rain = 0
KDO1 190031Z 34025G32KT 05/02 A2969 RMK A01 T00520019  RH  079%=      5-min Rain = 0
KDO1 190032Z 34022G30KT 05/02 A2969 RMK A01 T00520019  RH  079%=      5-min Rain = 0
KDO1 190033Z 34025G31KT 05/02 A2969 RMK A01 T00520019  RH  079%=      5-min Rain = 0
KDO1 190034Z 35025G32KT 05/02 A2969 RMK A01 T00520019  RH  080%=      5-min Rain = 0
KDO1 190035Z 34022G27KT 05/02 A297 RMK A01 T00520020  RH  080%=      5-min Rain = 0
KDO1 190036Z 34019G26KT 05/02 A297 RMK A01 T00520020  RH  080%=      5-min Rain = 0
KDO1 190037Z 34024G32KT 05/02 A297 RMK A01 T00520020  RH  080%=      5-min Rain = 0
KDO1 190038Z 33025G30KT 05/02 A297 RMK A01 T00520021  RH  080%=      5-min Rain = 0
KDO1 190039Z 33028G35KT 05/02 A297 RMK A01 T00510021  RH  081%=      5-min Rain = 0
KDO1 190040Z 34025G33KT 05/02 A2971 RMK A01 T00510021  RH  081%=      5-min Rain = 0
KDO1 190041Z 34024G29KT 05/02 A2971 RMK A01 T00510021  RH  081%=      5-min Rain = 0
KDO1 190042Z 34028KT 05/02 A2971 RMK A01 T00500022  RH  082%=      5-min Rain = 0
KDO1 190043Z 35027KT 05/02 A2971 RMK A01 T00500022  RH  082%=      5-min Rain = 0
KDO1 190044Z 34025G33KT 05/02 A2971 RMK A01 T00500022  RH  082%=      5-min Rain = 0
KDO1 190045Z 35025G31KT 05/02 A2971 RMK A01 T00500022  RH  082%=      5-min Rain = 0
KDO1 190046Z 35026G34KT 05/02 A2971 RMK A01 T00500022  RH  082%=      5-min Rain = 0
KDO1 190047Z 34026G35KT 05/02 A2971 RMK A01 T00500022  RH  082%=      5-min Rain = 0
KDO1 190048Z 34028G35KT 05/02 A2971 RMK A01 T00490022  RH  082%=      5-min Rain = 0
KDO1 190049Z 34029G36KT 05/02 A2971 RMK A01 T00490022  RH  083%=      5-min Rain = 0
KDO1 190050Z 34025G31KT 05/02 A2972 RMK A01 T00480022  RH  083%=      5-min Rain = 0
KDO1 190051Z 34028G40KT 05/02 A2972 RMK A01 T00480022  RH  083%=      5-min Rain = 0
KDO1 190052Z 35026G31KT 05/02 A2972 RMK A01 T00470021  RH  083%=      5-min Rain = 0
KDO1 190053Z 35028G34KT 05/02 A2972 RMK A01 T00470022  RH  083%=      5-min Rain = 0
KDO1 190054Z 35021G26KT 05/02 A2972 RMK A01 T00470022  RH  084%=      5-min Rain = 0
KDO1 190055Z 34022G28KT 05/02 A2972 RMK A01 T00470021  RH  084%=      5-min Rain = 0
KDO1 190056Z 35025KT 05/02 A2972 RMK A01 T00470022  RH  084%=      5-min Rain = 0
KDO1 190057Z 35021KT 05/02 A2972 RMK A01 T00470022  RH  084%=      5-min Rain = 0
KDO1 190058Z 35023G31KT 05/02 A2972 RMK A01 T00470022  RH  084%=      5-min Rain = 0
KDO1 190059Z 34027G34KT 05/02 A2972 RMK A01 T00460022  RH  084%=      5-min Rain = 0
KDO1 190100Z 34022G29KT 05/02 A2972 RMK A01 T00460022  RH  084%=      5-min Rain = 0
KDO1 190101Z 35021G29KT 05/02 A2973 RMK A01 T00460022  RH  084%=      5-min Rain = 0
KDO1 190102Z 35027G34KT 05/02 A2973 RMK A01 T00460022  RH  085%=      5-min Rain = 0
KDO1 190103Z 35026G33KT 05/02 A2973 RMK A01 T00450022  RH  085%=      5-min Rain = 0
KDO1 190104Z 35026G37KT 05/02 A2973 RMK A01 T00450022  RH  085%=      5-min Rain = 0
KDO1 190105Z 35025G33KT 05/02 A2973 RMK A01 T00450022  RH  085%=      5-min Rain = 0
KDO1 190106Z 35026G37KT 05/02 A2973 RMK A01 T00450022  RH  085%=      5-min Rain = 0
KDO1 190107Z 35023G29KT 05/02 A2973 RMK A01 T00450022  RH  085%=      5-min Rain = 0
KDO1 190108Z 35028G36KT 05/02 A2973 RMK A01 T00450022  RH  085%=      5-min Rain = 0
KDO1 190109Z 35023G29KT 05/02 A2974 RMK A01 T00450022  RH  085%=      5-min Rain = 0
KDO1 190110Z 35023G33KT 04/02 A2974 RMK A01 T00440022  RH  085%=      5-min Rain = 0
KDO1 190111Z 35027G34KT 04/02 A2974 RMK A01 T00440022  RH  085%=      5-min Rain = 0
KDO1 190112Z 34025G33KT 04/02 A2974 RMK A01 T00440021  RH  085%=      5-min Rain = 0
KDO1 190113Z 35025G32KT 04/02 A2974 RMK A01 T00440021  RH  085%=      5-min Rain = 0
KDO1 190114Z 35025G34KT 04/02 A2974 RMK A01 T00440021  RH  085%=      5-min Rain = 0
KDO1 190115Z 35023G28KT 04/02 A2974 RMK A01 T00440021  RH  085%=      5-min Rain = 0
KDO1 190116Z 36022G34KT 04/02 A2974 RMK A01 T00440021  RH  085%=      5-min Rain = 0
KDO1 190117Z 35029G35KT 04/02 A2974 RMK A01 T00440021  RH  085%=      5-min Rain = 0
KDO1 190118Z 35027G38KT 04/02 A2974 RMK A01 T00430020  RH  085%=      5-min Rain = 0
KDO1 190119Z 34026G32KT 04/02 A2974 RMK A01 T00430020  RH  085%=      5-min Rain = 0
KDO1 190120Z 35030G38KT 04/02 A2974 RMK A01 T00420020  RH  085%=      5-min Rain = 0
KDO1 190121Z 35028G38KT 04/02 A2974 RMK A01 T00420020  RH  085%=      5-min Rain = 0
KDO1 190122Z 35022G34KT 04/02 A2974 RMK A01 T00420020  RH  085%=      5-min Rain = 0
KDO1 190123Z 35028G35KT 04/02 A2974 RMK A01 T00420019  RH  085%=      5-min Rain = 0
KDO1 190124Z 35028G33KT 04/02 A2974 RMK A01 T00420019  RH  085%=      5-min Rain = 0
KDO1 190125Z 34031KT 04/02 A2975 RMK A01 T00420019  RH  085%=      5-min Rain = 0
KDO1 190126Z 35027G36KT 04/02 A2975 RMK A01 T00420019  RH  085%=      5-min Rain = 0
KDO1 190127Z 34024G31KT 04/02 A2975 RMK A01 T00420018  RH  085%=      5-min Rain = 0
KDO1 190128Z 34028G37KT 04/02 A2975 RMK A01 T00420018  RH  085%=      5-min Rain = 0
KDO1 190129Z 35025G35KT 04/02 A2975 RMK A01 T00420018  RH  085%=      5-min Rain = 0
KDO1 190130Z 35027G33KT 04/02 A2975 RMK A01 T00420018  RH  084%=      5-min Rain = 0
KDO1 190131Z 35026G33KT 04/02 A2975 RMK A01 T00420018  RH  084%=      5-min Rain = 0
KDO1 190132Z 35025G32KT 04/02 A2975 RMK A01 T00420018  RH  084%=      5-min Rain = 0
KDO1 190133Z 35023G32KT 04/02 A2976 RMK A01 T00420018  RH  084%=      5-min Rain = 0
KDO1 190134Z 35022G33KT 04/02 A2976 RMK A01 T00420017  RH  084%=      5-min Rain = 0
KDO1 190135Z 34023G28KT 04/02 A2976 RMK A01 T00420017  RH  084%=      5-min Rain = 0
KDO1 190136Z 35018G25KT 04/02 A2976 RMK A01 T00420017  RH  084%=      5-min Rain = 0
KDO1 190137Z 35017KT 04/02 A2976 RMK A01 T00430018  RH  084%=      5-min Rain = 0
KDO1 190138Z 35025G30KT 04/02 A2976 RMK A01 T00430017  RH  084%=      5-min Rain = 0
KDO1 190139Z 35028G35KT 04/02 A2977 RMK A01 T00430017  RH  083%=      5-min Rain = 0
KDO1 190140Z 34025G39KT 04/02 A2977 RMK A01 T00430017  RH  083%=      5-min Rain = 0
KDO1 190141Z 35031G39KT 04/02 A2976 RMK A01 T00420016  RH  083%=      5-min Rain = 0
KDO1 190142Z 35023G35KT 04/02 A2977 RMK A01 T00420016  RH  083%=      5-min Rain = 0
KDO1 190143Z 34028G35KT 04/02 A2977 RMK A01 T00420016  RH  083%=      5-min Rain = 0
KDO1 190144Z 35029G35KT 04/02 A2977 RMK A01 T00420016  RH  083%=      5-min Rain = 0
KDO1 190145Z 35025G31KT 04/02 A2977 RMK A01 T00420015  RH  083%=      5-min Rain = 0
KDO1 190146Z 35024G31KT 04/02 A2977 RMK A01 T00420015  RH  083%=      5-min Rain = 0
KDO1 190147Z 35026G32KT 04/02 A2977 RMK A01 T00420015  RH  083%=      5-min Rain = 0
KDO1 190148Z 35026G34KT 04/02 A2977 RMK A01 T00410015  RH  083%=      5-min Rain = 0
KDO1 190149Z 35026G32KT 04/01 A2978 RMK A01 T00410014  RH  083%=      5-min Rain = 0
KDO1 190150Z 35025G31KT 04/01 A2978 RMK A01 T00410014  RH  083%=      5-min Rain = 0
KDO1 190151Z 34021G27KT 04/01 A2978 RMK A01 T00410014  RH  083%=      5-min Rain = 0
KDO1 190152Z 34026G37KT 04/01 A2978 RMK A01 T00410014  RH  083%=      5-min Rain = 0
KDO1 190153Z 35028G37KT 04/01 A2978 RMK A01 T00400013  RH  083%=      5-min Rain = 0
KDO1 190154Z 35030G36KT 04/01 A2978 RMK A01 T00390012  RH  083%=      5-min Rain = 0
KDO1 190155Z 34027G38KT 04/01 A2978 RMK A01 T00380011  RH  083%=      5-min Rain = 0
KDO1 190156Z 34032G39KT 04/01 A2978 RMK A01 T00380011  RH  083%=      5-min Rain = 0
KDO1 190157Z 35028G39KT 04/01 A2978 RMK A01 T00370010  RH  083%=      5-min Rain = 0
KDO1 190158Z 35028G34KT 04/01 A2978 RMK A01 T00370010  RH  083%=      5-min Rain = 0
KDO1 190159Z 35025G33KT 04/01 A2979 RMK A01 T00370010  RH  083%=      5-min Rain = 0
KDO1 190200Z 35025G33KT 04/01 A2978 RMK A01 T00370010  RH  082%=      5-min Rain = 0
KDO1 190201Z 35023G30KT 04/01 A2978 RMK A01 T00370010  RH  082%=      5-min Rain = 0
KDO1 190202Z 35030G38KT 04/01 A2978 RMK A01 T00370010  RH  082%=      5-min Rain = 0
KDO1 190203Z 34031G39KT 04/01 A2978 RMK A01 T00370009  RH  082%=      5-min Rain = 0
KDO1 190204Z 34031G42KT 04/01 A2979 RMK A01 T00370008  RH  082%=      5-min Rain = 0
KDO1 190205Z 35029KT 04/01 A2979 RMK A01 T00370009  RH  082%=      5-min Rain = 0
KDO1 190206Z 34031G38KT 04/01 A2979 RMK A01 T00370008  RH  081%=      5-min Rain = 0
KDO1 190207Z 34027G33KT 04/01 A2979 RMK A01 T00370008  RH  081%=      5-min Rain = 0
KDO1 190208Z 34022G27KT 04/01 A2979 RMK A01 T00370008  RH  081%=      5-min Rain = 0
KDO1 190209Z 34028G36KT 04/01 A2979 RMK A01 T00370008  RH  081%=      5-min Rain = 0
KDO1 190210Z 35029G38KT 04/01 A2979 RMK A01 T00370007  RH  081%=      5-min Rain = 0
KDO1 190211Z 34030G37KT 04/01 A2979 RMK A01 T00380007  RH  081%=      5-min Rain = 0
KDO1 190212Z 35026G32KT 04/01 A2979 RMK A01 T00370007  RH  081%=      5-min Rain = 0
KDO1 190213Z 35026G32KT 04/01 A2979 RMK A01 T00370007  RH  081%=      5-min Rain = 0
KDO1 190214Z 35029G37KT 04/01 A2979 RMK A01 T00370007  RH  081%=      5-min Rain = 0
KDO1 190215Z 34028G38KT 04/01 A2979 RMK A01 T00370006  RH  081%=      5-min Rain = 0
KDO1 190216Z 35031G39KT 04/01 A2979 RMK A01 T00370006  RH  080%=      5-min Rain = 0
KDO1 190217Z 35029G41KT 04/01 A298 RMK A01 T00370006  RH  080%=      5-min Rain = 0
KDO1 190218Z 35032G40KT 04/01 A298 RMK A01 T00360005  RH  080%=      5-min Rain = 0
KDO1 190219Z 34030G35KT 04/01 A298 RMK A01 T00360005  RH  080%=      5-min Rain = 0
KDO1 190220Z 34031G36KT 04/01 A298 RMK A01 T00360005  RH  080%=      5-min Rain = 0
KDO1 190221Z 35027G33KT 04/01 A298 RMK A01 T00360005  RH  080%=      5-min Rain = 0
KDO1 190222Z 35028G37KT 04/01 A298 RMK A01 T00360005  RH  080%=      5-min Rain = 0
KDO1 190223Z 34023G31KT 04/00 A298 RMK A01 T00360004  RH  080%=      5-min Rain = 0
KDO1 190224Z 34024G29KT 04/00 A2981 RMK A01 T00360004  RH  080%=      5-min Rain = 0
KDO1 190225Z 35030G39KT 04/00 A298 RMK A01 T00360004  RH  079%=      5-min Rain = 0
KDO1 190226Z 34030G38KT 04/00 A298 RMK A01 T00360003  RH  079%=      5-min Rain = 0
KDO1 190227Z 35028G38KT 04/00 A2981 RMK A01 T00360003  RH  079%=      5-min Rain = 0
KDO1 190228Z 35026G35KT 04/00 A2981 RMK A01 T00360003  RH  079%=      5-min Rain = 0
KDO1 190229Z 35026G33KT 04/00 A2981 RMK A01 T00360003  RH  079%=      5-min Rain = 0
KDO1 190230Z 35027G36KT 04/00 A2981 RMK A01 T00360003  RH  079%=      5-min Rain = 0
KDO1 190231Z 35030G36KT 04/00 A2981 RMK A01 T00360003  RH  079%=      5-min Rain = 0
KDO1 190232Z 35028G36KT 04/00 A2981 RMK A01 T00360002  RH  079%=      5-min Rain = 0
KDO1 190233Z 35029G35KT 04/00 A2981 RMK A01 T00360002  RH  079%=      5-min Rain = 0
KDO1 190234Z 36025G36KT 04/00 A2981 RMK A01 T00360002  RH  078%=      5-min Rain = 0
KDO1 190235Z 35026G32KT 04/00 A2981 RMK A01 T00360002  RH  078%=      5-min Rain = 0
KDO1 190236Z 35025G41KT 04/00 A2981 RMK A01 T00360002  RH  078%=      5-min Rain = 0
KDO1 190237Z 35030G39KT 04/00 A2981 RMK A01 T00360002  RH  078%=      5-min Rain = 0
KDO1 190238Z 35032G41KT 04/00 A2981 RMK A01 T00360001  RH  078%=      5-min Rain = 0
KDO1 190239Z 35031G39KT 04/00 A2982 RMK A01 T00360001  RH  078%=      5-min Rain = 0
KDO1 190240Z 35031G40KT 04/00 A2982 RMK A01 T00360001  RH  078%=      5-min Rain = 0
KDO1 190241Z 35026G35KT 04/00 A2982 RMK A01 T00360001  RH  078%=      5-min Rain = 0
KDO1 190242Z 35030G38KT 04/00 A2982 RMK A01 T00360001  RH  078%=      5-min Rain = 0
KDO1 190243Z 35025G31KT 04/00 A2982 RMK A01 T00360001  RH  078%=      5-min Rain = 0
KDO1 190244Z 35032KT 04/00 A2982 RMK A01 T00360000  RH  078%=      5-min Rain = 0
KDO1 190245Z 36025G30KT 04/00 A2982 RMK A01 T003500-0  RH  078%=      5-min Rain = 0
KDO1 190246Z 35019G28KT 03/00 A2982 RMK A01 T00340000  RH  078%=      5-min Rain = 0
KDO1 190247Z 34025G37KT 03/00 A2982 RMK A01 T003400-0  RH  078%=      5-min Rain = 0
KDO1 190248Z 35031G37KT 03/M00 A2983 RMK A01 T00341001  RH  078%=      5-min Rain = 0
KDO1 190249Z 35027G35KT 03/M00 A2982 RMK A01 T00331001  RH  078%=      5-min Rain = 0
KDO1 190250Z 35029G38KT 03/M00 A2983 RMK A01 T00331001  RH  078%=      5-min Rain = 0
KDO1 190251Z 35030G37KT 03/M00 A2983 RMK A01 T00331001  RH  078%=      5-min Rain = 0
KDO1 190252Z 35027G36KT 03/M00 A2983 RMK A01 T00321002  RH  078%=      5-min Rain = 0
KDO1 190253Z 35026G36KT 03/M00 A2983 RMK A01 T00321002  RH  078%=      5-min Rain = 0
KDO1 190254Z 35025G33KT 03/M00 A2983 RMK A01 T00321002  RH  078%=      5-min Rain = 0
KDO1 190255Z 35026G40KT 03/M00 A2983 RMK A01 T00321002  RH  078%=      5-min Rain = 0
KDO1 190256Z 35030G41KT 03/M00 A2983 RMK A01 T00321003  RH  078%=      5-min Rain = 0
KDO1 190257Z 36028G36KT 03/M00 A2983 RMK A01 T00311003  RH  078%=      5-min Rain = 0
KDO1 190258Z 35030G39KT 03/M00 A2983 RMK A01 T00321004  RH  078%=      5-min Rain = 0
KDO1 190259Z 36028G38KT 03/M00 A2983 RMK A01 T00321004  RH  078%=      5-min Rain = 0
KDO1 190300Z 36024G31KT 03/M00 A2984 RMK A01 T00311004  RH  078%=      5-min Rain = 0
KDO1 190301Z 00020G30KT 03/M00 A2984 RMK A01 T00321004  RH  078%=      5-min Rain = 0
KDO1 190302Z 35028G37KT 03/M00 A2984 RMK A01 T00321004  RH  077%=      5-min Rain = 0
KDO1 190303Z 36026G36KT 03/M01 A2984 RMK A01 T00321005  RH  077%=      5-min Rain = 0
KDO1 190304Z 35027G36KT 03/M01 A2984 RMK A01 T00311005  RH  077%=      5-min Rain = 0
KDO1 190305Z 36027G36KT 03/M01 A2984 RMK A01 T00311006  RH  077%=      5-min Rain = 0
KDO1 190306Z 35030G35KT 03/M01 A2984 RMK A01 T00321006  RH  076%=      5-min Rain = 0
KDO1 190307Z 35029G35KT 03/M01 A2984 RMK A01 T00311007  RH  076%=      5-min Rain = 0
KDO1 190308Z 35025G33KT 03/M01 A2984 RMK A01 T00311008  RH  075%=      5-min Rain = 0
KDO1 190309Z 36027G42KT 03/M01 A2984 RMK A01 T00311008  RH  075%=      5-min Rain = 0
KDO1 190310Z 35029KT 03/M01 A2984 RMK A01 T00311009  RH  075%=      5-min Rain = 0
KDO1 190311Z 35025G32KT 03/M01 A2984 RMK A01 T00311010  RH  075%=      5-min Rain = 0
KDO1 190312Z 35026G32KT 03/M01 A2984 RMK A01 T00311010  RH  075%=      5-min Rain = 0
KDO1 190313Z 36026G32KT 03/M01 A2984 RMK A01 T00311010  RH  075%=      5-min Rain = 0
KDO1 190314Z 35032G38KT 03/M01 A2984 RMK A01 T00311010  RH  075%=      5-min Rain = 0
KDO1 190315Z 35025G33KT 03/M01 A2984 RMK A01 T00311009  RH  075%=      5-min Rain = 0
KDO1 190316Z 35025G34KT 03/M01 A2984 RMK A01 T00301009  RH  075%=      5-min Rain = 0
KDO1 190317Z 35031G40KT 03/M01 A2984 RMK A01 T00301010  RH  075%=      5-min Rain = 0
KDO1 190318Z 35034G41KT 03/M01 A2984 RMK A01 T00301011  RH  075%=      5-min Rain = 0
KDO1 190319Z 35026G35KT 03/M01 A2985 RMK A01 T00291011  RH  075%=      5-min Rain = 0
KDO1 190320Z 35028KT 03/M01 A2985 RMK A01 T00291010  RH  075%=      5-min Rain = 0
KDO1 190321Z 36028G34KT 03/M01 A2985 RMK A01 T00291010  RH  076%=      5-min Rain = 0
KDO1 190322Z 35023G29KT 03/M01 A2985 RMK A01 T00281010  RH  076%=      5-min Rain = 0
KDO1 190323Z 35032G43KT 03/M01 A2985 RMK A01 T00281009  RH  077%=      5-min Rain = 0
KDO1 190324Z 35027G36KT 03/M01 A2985 RMK A01 T00281009  RH  077%=      5-min Rain = 0
KDO1 190325Z 35026G34KT 03/M01 A2985 RMK A01 T00281009  RH  077%=      5-min Rain = 0
KDO1 190326Z 35021G28KT 03/M01 A2985 RMK A01 T00271008  RH  077%=      5-min Rain = 0
KDO1 190327Z 35028G37KT 03/M01 A2985 RMK A01 T00271008  RH  077%=      5-min Rain = 0
KDO1 190328Z 00023G28KT 03/M01 A2986 RMK A01 T00271009  RH  077%=      5-min Rain = 0
KDO1 190329Z 36028G37KT 03/M01 A2986 RMK A01 T00271010  RH  077%=      5-min Rain = 0
KDO1 190330Z 35028G34KT 03/M01 A2986 RMK A01 T00261010  RH  077%=      5-min Rain = 0
KDO1 190331Z 34024G33KT 03/M01 A2986 RMK A01 T00261010  RH  077%=      5-min Rain = 0
KDO1 190332Z 35024G31KT 03/M01 A2986 RMK A01 T00261011  RH  077%=      5-min Rain = 0
KDO1 190333Z 35028G37KT 03/M01 A2986 RMK A01 T00261011  RH  077%=      5-min Rain = 0
KDO1 190334Z 34024G34KT 03/M01 A2986 RMK A01 T00251012  RH  076%=      5-min Rain = 0
KDO1 190335Z 35030G39KT 03/M01 A2986 RMK A01 T00251013  RH  076%=      5-min Rain = 0
KDO1 190336Z 35028G37KT 03/M01 A2986 RMK A01 T00251014  RH  076%=      5-min Rain = 0
KDO1 190337Z 35032G39KT 03/M01 A2986 RMK A01 T00251014  RH  076%=      5-min Rain = 0
KDO1 190338Z 35023G30KT 03/M01 A2986 RMK A01 T00251014  RH  075%=      5-min Rain = 0
KDO1 190339Z 36037G45KT 03/M02 A2986 RMK A01 T00251015  RH  075%=      5-min Rain = 0
KDO1 190340Z 35036G44KT 03/M02 A2985 RMK A01 T00251016  RH  074%=      5-min Rain = 0
KDO1 190341Z 35023G31KT 03/M02 A2985 RMK A01 T00251017  RH  074%=      5-min Rain = 0
KDO1 190342Z 35027G32KT 02/M02 A2985 RMK A01 T00241017  RH  074%=      5-min Rain = 0
KDO1 190343Z 35029G37KT 02/M02 A2985 RMK A01 T00241017  RH  074%=      5-min Rain = 0
KDO1 190344Z 35033G49KT 02/M02 A2985 RMK A01 T00241018  RH  074%=      5-min Rain = 0
KDO1 190345Z 35030G41KT 02/M02 A2985 RMK A01 T00241018  RH  074%=      5-min Rain = 0
KDO1 190346Z 35030G41KT 02/M02 A2985 RMK A01 T00241018  RH  074%=      5-min Rain = 0
KDO1 190347Z 34027G38KT 02/M02 A2985 RMK A01 T00241018  RH  074%=      5-min Rain = 0
KDO1 190348Z 35031G38KT 03/M02 A2985 RMK A01 T00251017  RH  074%=      5-min Rain = 0
KDO1 190349Z 35029G39KT 03/M02 A2984 RMK A01 T00251016  RH  075%=      5-min Rain = 0
KDO1 190350Z 34031G42KT 02/M02 A2984 RMK A01 T00241016  RH  075%=      5-min Rain = 0
KDO1 190351Z 35028G38KT 02/M02 A2984 RMK A01 T00241016  RH  075%=      5-min Rain = 0
KDO1 190352Z 35030G40KT 02/M02 A2984 RMK A01 T00241016  RH  075%=      5-min Rain = 0
KDO1 190353Z 35033G43KT 02/M02 A2984 RMK A01 T00241017  RH  075%=      5-min Rain = 0
KDO1 190354Z 35032G40KT 02/M02 A2985 RMK A01 T00241017  RH  074%=      5-min Rain = 0
KDO1 190355Z 35036G44KT 02/M02 A2984 RMK A01 T00231018  RH  074%=      5-min Rain = 0
KDO1 190356Z 35037G47KT 02/M02 A2984 RMK A01 T00231018  RH  074%=      5-min Rain = 0
KDO1 190357Z 35038G44KT 02/M02 A2984 RMK A01 T00231019  RH  074%=      5-min Rain = 0
KDO1 190358Z 35037G47KT 02/M02 A2984 RMK A01 T00221019  RH  074%=      5-min Rain = 0
KDO1 190359Z 35033G43KT 02/M02 A2984 RMK A01 T00221019  RH  074%=      5-min Rain = 0
KDO1 190400Z 36032G41KT 02/M02 A2985 RMK A01 T00221018  RH  075%=      5-min Rain = 0
KDO1 190401Z 35029G36KT 02/M02 A2985 RMK A01 T00221018  RH  075%=      5-min Rain = 0
KDO1 190402Z 35032G42KT 02/M02 A2985 RMK A01 T00221018  RH  075%=      5-min Rain = 0
KDO1 190403Z 34031G43KT 02/M02 A2984 RMK A01 T00221018  RH  075%=      5-min Rain = 0
KDO1 190404Z 35031G39KT 02/M02 A2985 RMK A01 T00221019  RH  074%=      5-min Rain = 0
KDO1 190405Z 35031G38KT 02/M02 A2985 RMK A01 T00221019  RH  074%=      5-min Rain = 0
KDO1 190406Z 35034G47KT 02/M02 A2986 RMK A01 T00221020  RH  074%=      5-min Rain = 0
KDO1 190407Z 35028G37KT 02/M02 A2986 RMK A01 T00221021  RH  073%=      5-min Rain = 0
KDO1 190408Z 35036G44KT 02/M02 A2986 RMK A01 T00221021  RH  073%=      5-min Rain = 0
KDO1 190409Z 35030G43KT 02/M02 A2986 RMK A01 T00221021  RH  073%=      5-min Rain = 0
KDO1 190410Z 35036G43KT 02/M02 A2986 RMK A01 T00221021  RH  073%=      5-min Rain = 0
KDO1 190411Z 36036G45KT 02/M02 A2986 RMK A01 T00221021  RH  073%=      5-min Rain = 0
KDO1 190412Z 35033G42KT 02/M02 A2987 RMK A01 T00221021  RH  073%=      5-min Rain = 0
KDO1 190413Z 35027G36KT 02/M02 A2987 RMK A01 T00221021  RH  073%=      5-min Rain = 0
KDO1 190414Z 35029G37KT 02/M02 A2987 RMK A01 T00221020  RH  073%=      5-min Rain = 0
KDO1 190415Z 35034G46KT 02/M02 A2987 RMK A01 T00221021  RH  074%=      5-min Rain = 0
KDO1 190416Z 34033G42KT 02/M02 A2987 RMK A01 T00221021  RH  073%=      5-min Rain = 0
KDO1 190417Z 35031G41KT 02/M02 A2988 RMK A01 T00211021  RH  073%=      5-min Rain = 0
KDO1 190418Z 35033G42KT 02/M02 A2988 RMK A01 T00211021  RH  074%=      5-min Rain = 0
KDO1 190419Z 35034G40KT 02/M02 A2988 RMK A01 T00211021  RH  074%=      5-min Rain = 0
KDO1 190420Z 35032G44KT 02/M02 A2988 RMK A01 T00211021  RH  074%=      5-min Rain = 0
KDO1 190421Z 35033G44KT 02/M02 A2988 RMK A01 T00201022  RH  074%=      5-min Rain = 0
KDO1 190422Z 35035G46KT 02/M02 A2988 RMK A01 T00201023  RH  073%=      5-min Rain = 0
KDO1 190423Z 35033G40KT 02/M02 A2988 RMK A01 T00201023  RH  073%=      5-min Rain = 0
KDO1 190424Z 35034G46KT 02/M02 A2988 RMK A01 T00201024  RH  073%=      5-min Rain = 0
KDO1 190425Z 35032G38KT 02/M02 A2988 RMK A01 T00201024  RH  073%=      5-min Rain = 0
KDO1 190426Z 35025G32KT 02/M02 A2989 RMK A01 T00201024  RH  073%=      5-min Rain = 0
KDO1 190427Z 35031G39KT 02/M02 A2989 RMK A01 T00201023  RH  073%=      5-min Rain = 0
KDO1 190428Z 35035G46KT 02/M02 A2989 RMK A01 T00191023  RH  073%=      5-min Rain = 0
KDO1 190429Z 35035G42KT 02/M02 A2989 RMK A01 T00191023  RH  074%=      5-min Rain = 0
KDO1 190430Z 35032G40KT 02/M02 A2989 RMK A01 T00181023  RH  074%=      5-min Rain = 0
KDO1 190431Z 35028G38KT 02/M02 A2989 RMK A01 T00181023  RH  074%=      5-min Rain = 0
KDO1 190432Z 36031G40KT 02/M02 A2989 RMK A01 T00181022  RH  075%=      5-min Rain = 0
KDO1 190433Z 35030G39KT 02/M02 A299 RMK A01 T00181023  RH  075%=      5-min Rain = 0
KDO1 190434Z 36034G39KT 02/M02 A2989 RMK A01 T00181023  RH  074%=      5-min Rain = 0
KDO1 190435Z 36032G44KT 02/M02 A299 RMK A01 T00181023  RH  074%=      5-min Rain = 0
KDO1 190436Z 36031G38KT 02/M02 A299 RMK A01 T00181024  RH  074%=      5-min Rain = 0
KDO1 190437Z 35024G34KT 02/M02 A299 RMK A01 T00181024  RH  074%=      5-min Rain = 0
KDO1 190438Z 35027G33KT 02/M02 A299 RMK A01 T00181023  RH  074%=      5-min Rain = 0
KDO1 190439Z 36030G39KT 02/M02 A299 RMK A01 T00181024  RH  074%=      5-min Rain = 0
KDO1 190440Z 34029G36KT 02/M02 A299 RMK A01 T00181024  RH  074%=      5-min Rain = 0
KDO1 190441Z 36025G38KT 02/M02 A299 RMK A01 T00181024  RH  074%=      5-min Rain = 0
KDO1 190442Z 35032G39KT 02/M02 A299 RMK A01 T00181024  RH  074%=      5-min Rain = 0
KDO1 190443Z 35028G34KT 02/M03 A2991 RMK A01 T00181025  RH  073%=      5-min Rain = 0
KDO1 190444Z 35027G33KT 02/M03 A2991 RMK A01 T00181025  RH  073%=      5-min Rain = 0
KDO1 190445Z 35031G41KT 02/M02 A299 RMK A01 T00181024  RH  073%=      5-min Rain = 0
KDO1 190446Z 35034G43KT 02/M03 A2991 RMK A01 T00181025  RH  073%=      5-min Rain = 0
KDO1 190447Z 35033G44KT 02/M03 A299 RMK A01 T00181025  RH  073%=      5-min Rain = 0
KDO1 190448Z 36030G38KT 02/M03 A2991 RMK A01 T00181025  RH  073%=      5-min Rain = 0
KDO1 190449Z 35034G41KT 02/M03 A2991 RMK A01 T00171025  RH  073%=      5-min Rain = 0
KDO1 190450Z 34028G34KT 02/M03 A2991 RMK A01 T00171025  RH  073%=      5-min Rain = 0
KDO1 190451Z 35027G32KT 02/M03 A2991 RMK A01 T00181025  RH  073%=      5-min Rain = 0
KDO1 190452Z 35025G31KT 02/M03 A2991 RMK A01 T00171025  RH  074%=      5-min Rain = 0
KDO1 190453Z 35024G31KT 02/M02 A2991 RMK A01 T00171024  RH  074%=      5-min Rain = 0
KDO1 190454Z 35028G43KT 02/M02 A2992 RMK A01 T00171024  RH  074%=      5-min Rain = 0
KDO1 190455Z 35027G33KT 02/M03 A2991 RMK A01 T00171025  RH  074%=      5-min Rain = 0
KDO1 190456Z 35027G36KT 02/M03 A2992 RMK A01 T00171025  RH  074%=      5-min Rain = 0
KDO1 190457Z 35030G38KT 02/M03 A2991 RMK A01 T00161026  RH  073%=      5-min Rain = 0
KDO1 190458Z 35025G32KT 02/M03 A2992 RMK A01 T00161026  RH  074%=      5-min Rain = 0
KDO1 190459Z 35028G38KT 02/M03 A2992 RMK A01 T00161026  RH  073%=      5-min Rain = 0
KDO1 190500Z 36029G35KT 02/M03 A2992 RMK A01 T00151027  RH  073%=      5-min Rain = 0
KDO1 190501Z 35027G35KT 02/M03 A2992 RMK A01 T00151028  RH  073%=      5-min Rain = 0
KDO1 190502Z 35030G38KT 02/M03 A2992 RMK A01 T00151028  RH  073%=      5-min Rain = 0
KDO1 190503Z 35030G36KT 02/M03 A2992 RMK A01 T00151028  RH  073%=      5-min Rain = 0
KDO1 190504Z 36033G42KT 01/M03 A2992 RMK A01 T00141028  RH  074%=      5-min Rain = 0
KDO1 190505Z 35032G40KT 01/M03 A2992 RMK A01 T00141027  RH  074%=      5-min Rain = 0
KDO1 190506Z 36033G42KT 01/M03 A2993 RMK A01 T00141027  RH  074%=      5-min Rain = 0
KDO1 190507Z 35028G36KT 01/M03 A2993 RMK A01 T00131027  RH  075%=      5-min Rain = 0
KDO1 190508Z 36035G44KT 01/M03 A2993 RMK A01 T00131026  RH  075%=      5-min Rain = 0
KDO1 190509Z 35030G35KT 01/M03 A2992 RMK A01 T00131026  RH  075%=      5-min Rain = 0
KDO1 190510Z 35030G37KT 01/M03 A2993 RMK A01 T00131026  RH  076%=      5-min Rain = 0
KDO1 190511Z 35027G35KT 01/M03 A2993 RMK A01 T00131025  RH  076%=      5-min Rain = 0
KDO1 190512Z 35029G35KT 01/M03 A2993 RMK A01 T00131025  RH  076%=      5-min Rain = 0
KDO1 190513Z 35027G35KT 01/M03 A2993 RMK A01 T00121025  RH  076%=      5-min Rain = 0
KDO1 190514Z 35022G27KT 01/M02 A2993 RMK A01 T00121024  RH  077%=      5-min Rain = 0
KDO1 190515Z 35027G34KT 01/M02 A2993 RMK A01 T00121024  RH  077%=      5-min Rain = 0
KDO1 190516Z 36026G31KT 01/M03 A2993 RMK A01 T00121025  RH  076%=      5-min Rain = 0
KDO1 190517Z 35023KT 01/M03 A2994 RMK A01 T00121025  RH  076%=      5-min Rain = 0
KDO1 190518Z 36030G36KT 01/M03 A2994 RMK A01 T00121025  RH  076%=      5-min Rain = 0
KDO1 190519Z 36033G40KT 01/M03 A2994 RMK A01 T00121026  RH  076%=      5-min Rain = 0
KDO1 190520Z 35024G31KT 01/M03 A2994 RMK A01 T00121027  RH  076%=      5-min Rain = 0
KDO1 190521Z 00026G38KT 01/M03 A2994 RMK A01 T00121027  RH  075%=      5-min Rain = 0
KDO1 190522Z 36023G32KT 01/M03 A2994 RMK A01 T00121027  RH  075%=      5-min Rain = 0
KDO1 190523Z 35024G31KT 01/M03 A2994 RMK A01 T00121028  RH  075%=      5-min Rain = 0
KDO1 190524Z 36027G34KT 01/M03 A2994 RMK A01 T00121028  RH  075%=      5-min Rain = 0
KDO1 190525Z 36023G29KT 01/M03 A2994 RMK A01 T00121027  RH  075%=      5-min Rain = 0
KDO1 190526Z 35022G27KT 01/M03 A2994 RMK A01 T00121027  RH  075%=      5-min Rain = 0
KDO1 190527Z 35026G33KT 01/M03 A2995 RMK A01 T00121027  RH  075%=      5-min Rain = 0
KDO1 190528Z 35024G32KT 01/M03 A2995 RMK A01 T00121026  RH  076%=      5-min Rain = 0
KDO1 190529Z 35021G26KT 01/M03 A2995 RMK A01 T00121026  RH  076%=      5-min Rain = 0
KDO1 190530Z 35030G36KT 01/M03 A2995 RMK A01 T00121025  RH  076%=      5-min Rain = 0
KDO1 190531Z 35027G37KT 01/M03 A2995 RMK A01 T00121025  RH  076%=      5-min Rain = 0
KDO1 190532Z 35026G37KT 01/M03 A2995 RMK A01 T00121025  RH  076%=      5-min Rain = 0
KDO1 190533Z 35029G37KT 01/M03 A2995 RMK A01 T00121025  RH  076%=      5-min Rain = 0
KDO1 190534Z 35027G37KT 01/M03 A2995 RMK A01 T00121025  RH  076%=      5-min Rain = 0
KDO1 190535Z 00023G32KT 01/M03 A2995 RMK A01 T00121025  RH  076%=      5-min Rain = 0
KDO1 190536Z 36025G32KT 01/M03 A2995 RMK A01 T00121025  RH  076%=      5-min Rain = 0
KDO1 190537Z 36022G29KT 01/M03 A2995 RMK A01 T00121025  RH  076%=      5-min Rain = 0
KDO1 190538Z 35028G35KT 01/M03 A2995 RMK A01 T00111026  RH  076%=      5-min Rain = 0
KDO1 190539Z 36023G30KT 01/M03 A2996 RMK A01 T00121026  RH  076%=      5-min Rain = 0
KDO1 190540Z 35022G32KT 01/M03 A2995 RMK A01 T00111026  RH  076%=      5-min Rain = 0
KDO1 190541Z 36022G28KT 01/M03 A2996 RMK A01 T00111027  RH  076%=      5-min Rain = 0
KDO1 190542Z 35023G29KT 01/M03 A2996 RMK A01 T00111027  RH  076%=      5-min Rain = 0
KDO1 190543Z 35028G35KT 01/M03 A2996 RMK A01 T00111027  RH  076%=      5-min Rain = 0
KDO1 190544Z 35024G34KT 01/M03 A2996 RMK A01 T00111028  RH  075%=      5-min Rain = 0
KDO1 190545Z 35025G33KT 01/M03 A2996 RMK A01 T00111028  RH  075%=      5-min Rain = 0
KDO1 190546Z 35025G32KT 01/M03 A2996 RMK A01 T00111029  RH  075%=      5-min Rain = 0
KDO1 190547Z 35029KT 01/M03 A2996 RMK A01 T00101029  RH  075%=      5-min Rain = 0
KDO1 190548Z 35022G31KT 01/M03 A2996 RMK A01 T00111029  RH  075%=      5-min Rain = 0
KDO1 190549Z 35025G31KT 01/M03 A2996 RMK A01 T00111029  RH  075%=      5-min Rain = 0
KDO1 190550Z 35020G25KT 01/M03 A2996 RMK A01 T00101029  RH  075%=      5-min Rain = 0
KDO1 190551Z 35020G29KT 01/M03 A2996 RMK A01 T00101029  RH  075%=      5-min Rain = 0
KDO1 190552Z 00029G39KT 01/M03 A2996 RMK A01 T00101029  RH  075%=      5-min Rain = 0
KDO1 190553Z 36031G36KT 01/M03 A2996 RMK A01 T00101030  RH  075%=      5-min Rain = 0
KDO1 190554Z 36024G30KT 01/M03 A2996 RMK A01 T00101030  RH  075%=      5-min Rain = 0
KDO1 190555Z 00028G34KT 01/M03 A2996 RMK A01 T00101030  RH  075%=      5-min Rain = 0
KDO1 190556Z 35028G36KT 01/M03 A2996 RMK A01 T00101031  RH  074%=      5-min Rain = 0
KDO1 190557Z 35034G46KT 01/M03 A2996 RMK A01 T00101032  RH  074%=      5-min Rain = 0
KDO1 190558Z 36027G36KT 01/M03 A2996 RMK A01 T00101032  RH  073%=      5-min Rain = 0
KDO1 190559Z 35029G40KT 01/M03 A2996 RMK A01 T00111033  RH  073%=      5-min Rain = 0

Page generated in 0.0363 seconds.